<?xml version="1.0" encoding="utf-8"?>
<gpx xmlns:xsi="http://www.w3.org/2001/XMLSchema-instance" xmlns:xsd="http://www.w3.org/2001/XMLSchema" version="1.1" creator="Shapelink.com" xmlns="http://www.topografix.com/GPX/1/1" xmlns:gpxtpx="http://www.garmin.com/xmlschemas/TrackPointExtension/v1">
  <metadata>
    <name>Längdskidåkning - Klassisk 14.63 km, 2013-03-24</name>
    <desc></desc>
    <author><name>Alexander Engvall</name></author> 
    <time>2013-03-24T17:22:46Z</time>
  </metadata>
  <trk>
    <name>Längdskidåkning - Klassisk 14.63 km, 2013-03-24</name>
    <trkseg>
      <trkpt lat="59.4837009" lon="17.8775113">
        <ele>41.2</ele>
        <time>2013-03-24T17:22:46Z</time>
      </trkpt>
      <trkpt lat="59.4835143" lon="17.8775471">
        <ele>41.2</ele>
        <time>2013-03-24T17:22:50Z</time>
      </trkpt>
      <trkpt lat="59.4833216" lon="17.8774975">
        <ele>39.2</ele>
        <time>2013-03-24T17:22:54Z</time>
      </trkpt>
      <trkpt lat="59.4830928" lon="17.8774837">
        <ele>39</ele>
        <time>2013-03-24T17:22:58Z</time>
      </trkpt>
      <trkpt lat="59.4828809" lon="17.8775581">
        <ele>38.6</ele>
        <time>2013-03-24T17:23:02Z</time>
      </trkpt>
      <trkpt lat="59.4827099" lon="17.877728">
        <ele>37.8</ele>
        <time>2013-03-24T17:23:06Z</time>
      </trkpt>
      <trkpt lat="59.4826234" lon="17.8780055">
        <ele>36.6</ele>
        <time>2013-03-24T17:23:09Z</time>
      </trkpt>
      <trkpt lat="59.4826041" lon="17.878095">
        <ele>35.6</ele>
        <time>2013-03-24T17:23:10Z</time>
      </trkpt>
      <trkpt lat="59.4826026" lon="17.8781867">
        <ele>35</ele>
        <time>2013-03-24T17:23:11Z</time>
      </trkpt>
      <trkpt lat="59.4826794" lon="17.8785182">
        <ele>31.6</ele>
        <time>2013-03-24T17:23:15Z</time>
      </trkpt>
      <trkpt lat="59.482766" lon="17.8787185">
        <ele>29</ele>
        <time>2013-03-24T17:23:18Z</time>
      </trkpt>
      <trkpt lat="59.4827813" lon="17.8787991">
        <ele>29.6</ele>
        <time>2013-03-24T17:23:19Z</time>
      </trkpt>
      <trkpt lat="59.4828043" lon="17.8788736">
        <ele>29.8</ele>
        <time>2013-03-24T17:23:20Z</time>
      </trkpt>
      <trkpt lat="59.482911" lon="17.8791857">
        <ele>29.8</ele>
        <time>2013-03-24T17:23:25Z</time>
      </trkpt>
      <trkpt lat="59.4829232" lon="17.8792755">
        <ele>30.2</ele>
        <time>2013-03-24T17:23:26Z</time>
      </trkpt>
      <trkpt lat="59.4829456" lon="17.879448">
        <ele>30.2</ele>
        <time>2013-03-24T17:23:28Z</time>
      </trkpt>
      <trkpt lat="59.4829486" lon="17.8795369">
        <ele>30</ele>
        <time>2013-03-24T17:23:29Z</time>
      </trkpt>
      <trkpt lat="59.4829528" lon="17.8798781">
        <ele>30.2</ele>
        <time>2013-03-24T17:23:33Z</time>
      </trkpt>
      <trkpt lat="59.4829435" lon="17.8799604">
        <ele>30</ele>
        <time>2013-03-24T17:23:34Z</time>
      </trkpt>
      <trkpt lat="59.4829145" lon="17.8802701">
        <ele>26.6</ele>
        <time>2013-03-24T17:23:38Z</time>
      </trkpt>
      <trkpt lat="59.4829035" lon="17.8803437">
        <ele>26.6</ele>
        <time>2013-03-24T17:23:39Z</time>
      </trkpt>
      <trkpt lat="59.4828815" lon="17.8804456">
        <ele>26.2</ele>
        <time>2013-03-24T17:23:40Z</time>
      </trkpt>
      <trkpt lat="59.4828367" lon="17.8806898">
        <ele>28</ele>
        <time>2013-03-24T17:23:42Z</time>
      </trkpt>
      <trkpt lat="59.4827676" lon="17.8810533">
        <ele>28.4</ele>
        <time>2013-03-24T17:23:45Z</time>
      </trkpt>
      <trkpt lat="59.4826908" lon="17.8813963">
        <ele>27.8</ele>
        <time>2013-03-24T17:23:48Z</time>
      </trkpt>
      <trkpt lat="59.4826655" lon="17.8815921">
        <ele>24.2</ele>
        <time>2013-03-24T17:23:50Z</time>
      </trkpt>
      <trkpt lat="59.4826639" lon="17.881781">
        <ele>21</ele>
        <time>2013-03-24T17:23:52Z</time>
      </trkpt>
      <trkpt lat="59.4826711" lon="17.8819713">
        <ele>19.2</ele>
        <time>2013-03-24T17:23:54Z</time>
      </trkpt>
      <trkpt lat="59.4826892" lon="17.88218">
        <ele>17.8</ele>
        <time>2013-03-24T17:23:56Z</time>
      </trkpt>
      <trkpt lat="59.4826864" lon="17.8824153">
        <ele>16.4</ele>
        <time>2013-03-24T17:23:58Z</time>
      </trkpt>
      <trkpt lat="59.4826696" lon="17.8826473">
        <ele>16.8</ele>
        <time>2013-03-24T17:24:00Z</time>
      </trkpt>
      <trkpt lat="59.4826175" lon="17.8830564">
        <ele>18.4</ele>
        <time>2013-03-24T17:24:03Z</time>
      </trkpt>
      <trkpt lat="59.4825489" lon="17.883487">
        <ele>19.2</ele>
        <time>2013-03-24T17:24:06Z</time>
      </trkpt>
      <trkpt lat="59.4824989" lon="17.8837882">
        <ele>19.2</ele>
        <time>2013-03-24T17:24:08Z</time>
      </trkpt>
      <trkpt lat="59.4824624" lon="17.8839257">
        <ele>19</ele>
        <time>2013-03-24T17:24:09Z</time>
      </trkpt>
      <trkpt lat="59.4822893" lon="17.8842838">
        <ele>17.4</ele>
        <time>2013-03-24T17:24:12Z</time>
      </trkpt>
      <trkpt lat="59.4821078" lon="17.8846253">
        <ele>17</ele>
        <time>2013-03-24T17:24:15Z</time>
      </trkpt>
      <trkpt lat="59.4820001" lon="17.8850097">
        <ele>16.2</ele>
        <time>2013-03-24T17:24:18Z</time>
      </trkpt>
      <trkpt lat="59.4819758" lon="17.885155">
        <ele>15.2</ele>
        <time>2013-03-24T17:24:19Z</time>
      </trkpt>
      <trkpt lat="59.4819713" lon="17.8853182">
        <ele>14.2</ele>
        <time>2013-03-24T17:24:20Z</time>
      </trkpt>
      <trkpt lat="59.4819555" lon="17.8854445">
        <ele>13.8</ele>
        <time>2013-03-24T17:24:21Z</time>
      </trkpt>
      <trkpt lat="59.4819349" lon="17.885785">
        <ele>12</ele>
        <time>2013-03-24T17:24:24Z</time>
      </trkpt>
      <trkpt lat="59.4819379" lon="17.8858818">
        <ele>10.4</ele>
        <time>2013-03-24T17:24:25Z</time>
      </trkpt>
      <trkpt lat="59.4819364" lon="17.8859511">
        <ele>10</ele>
        <time>2013-03-24T17:24:26Z</time>
      </trkpt>
      <trkpt lat="59.4818372" lon="17.8861899">
        <ele>9.6</ele>
        <time>2013-03-24T17:24:29Z</time>
      </trkpt>
      <trkpt lat="59.481792" lon="17.8862719">
        <ele>9</ele>
        <time>2013-03-24T17:24:30Z</time>
      </trkpt>
      <trkpt lat="59.4816993" lon="17.8863961">
        <ele>9.2</ele>
        <time>2013-03-24T17:24:32Z</time>
      </trkpt>
      <trkpt lat="59.4816473" lon="17.8864572">
        <ele>9</ele>
        <time>2013-03-24T17:24:33Z</time>
      </trkpt>
      <trkpt lat="59.4815905" lon="17.8865101">
        <ele>9.2</ele>
        <time>2013-03-24T17:24:34Z</time>
      </trkpt>
      <trkpt lat="59.4814769" lon="17.886608">
        <ele>9.4</ele>
        <time>2013-03-24T17:24:36Z</time>
      </trkpt>
      <trkpt lat="59.4812583" lon="17.8867406">
        <ele>8.4</ele>
        <time>2013-03-24T17:24:40Z</time>
      </trkpt>
      <trkpt lat="59.4810742" lon="17.8868513">
        <ele>8</ele>
        <time>2013-03-24T17:24:44Z</time>
      </trkpt>
      <trkpt lat="59.4809814" lon="17.8869054">
        <ele>9</ele>
        <time>2013-03-24T17:24:46Z</time>
      </trkpt>
      <trkpt lat="59.4808891" lon="17.8869534">
        <ele>8.8</ele>
        <time>2013-03-24T17:24:48Z</time>
      </trkpt>
      <trkpt lat="59.4807136" lon="17.8868645">
        <ele>9.2</ele>
        <time>2013-03-24T17:24:52Z</time>
      </trkpt>
      <trkpt lat="59.4806427" lon="17.886479">
        <ele>7.4</ele>
        <time>2013-03-24T17:24:57Z</time>
      </trkpt>
      <trkpt lat="59.4806277" lon="17.8863172">
        <ele>6.4</ele>
        <time>2013-03-24T17:24:59Z</time>
      </trkpt>
      <trkpt lat="59.4806171" lon="17.8861236">
        <ele>5</ele>
        <time>2013-03-24T17:25:01Z</time>
      </trkpt>
      <trkpt lat="59.4806048" lon="17.8857329">
        <ele>3</ele>
        <time>2013-03-24T17:25:05Z</time>
      </trkpt>
      <trkpt lat="59.4806061" lon="17.8856357">
        <ele>2.8</ele>
        <time>2013-03-24T17:25:06Z</time>
      </trkpt>
      <trkpt lat="59.4806141" lon="17.8854377">
        <ele>2</ele>
        <time>2013-03-24T17:25:08Z</time>
      </trkpt>
      <trkpt lat="59.4806227" lon="17.8853379">
        <ele>2.2</ele>
        <time>2013-03-24T17:25:09Z</time>
      </trkpt>
      <trkpt lat="59.4806491" lon="17.8850256">
        <ele>0.4</ele>
        <time>2013-03-24T17:25:12Z</time>
      </trkpt>
      <trkpt lat="59.4806539" lon="17.8849193">
        <ele>0.8</ele>
        <time>2013-03-24T17:25:13Z</time>
      </trkpt>
      <trkpt lat="59.480638" lon="17.884515">
        <ele>1.4</ele>
        <time>2013-03-24T17:25:17Z</time>
      </trkpt>
      <trkpt lat="59.4805717" lon="17.8842774">
        <ele>3</ele>
        <time>2013-03-24T17:25:20Z</time>
      </trkpt>
      <trkpt lat="59.480543" lon="17.8842086">
        <ele>3.6</ele>
        <time>2013-03-24T17:25:21Z</time>
      </trkpt>
      <trkpt lat="59.4804051" lon="17.8839262">
        <ele>6</ele>
        <time>2013-03-24T17:25:26Z</time>
      </trkpt>
      <trkpt lat="59.4803085" lon="17.8837636">
        <ele>7.8</ele>
        <time>2013-03-24T17:25:29Z</time>
      </trkpt>
      <trkpt lat="59.4802479" lon="17.8837069">
        <ele>10</ele>
        <time>2013-03-24T17:25:31Z</time>
      </trkpt>
      <trkpt lat="59.4801063" lon="17.883448">
        <ele>10.8</ele>
        <time>2013-03-24T17:25:36Z</time>
      </trkpt>
      <trkpt lat="59.4799344" lon="17.8833472">
        <ele>15.6</ele>
        <time>2013-03-24T17:25:41Z</time>
      </trkpt>
      <trkpt lat="59.4797827" lon="17.8833824">
        <ele>18.4</ele>
        <time>2013-03-24T17:25:44Z</time>
      </trkpt>
      <trkpt lat="59.4797323" lon="17.8833646">
        <ele>19.4</ele>
        <time>2013-03-24T17:25:45Z</time>
      </trkpt>
      <trkpt lat="59.4795409" lon="17.8833377">
        <ele>21.8</ele>
        <time>2013-03-24T17:25:49Z</time>
      </trkpt>
      <trkpt lat="59.479335" lon="17.8832843">
        <ele>24.4</ele>
        <time>2013-03-24T17:25:53Z</time>
      </trkpt>
      <trkpt lat="59.479137" lon="17.8832503">
        <ele>24.8</ele>
        <time>2013-03-24T17:25:57Z</time>
      </trkpt>
      <trkpt lat="59.4789984" lon="17.8832264">
        <ele>23.2</ele>
        <time>2013-03-24T17:26:00Z</time>
      </trkpt>
      <trkpt lat="59.4789258" lon="17.8832181">
        <ele>22.2</ele>
        <time>2013-03-24T17:26:02Z</time>
      </trkpt>
      <trkpt lat="59.4788585" lon="17.8832267">
        <ele>22</ele>
        <time>2013-03-24T17:26:04Z</time>
      </trkpt>
      <trkpt lat="59.4787105" lon="17.8832055">
        <ele>22.2</ele>
        <time>2013-03-24T17:26:08Z</time>
      </trkpt>
      <trkpt lat="59.4786708" lon="17.8831811">
        <ele>22</ele>
        <time>2013-03-24T17:26:09Z</time>
      </trkpt>
      <trkpt lat="59.4785074" lon="17.8831055">
        <ele>23</ele>
        <time>2013-03-24T17:26:13Z</time>
      </trkpt>
      <trkpt lat="59.4783861" lon="17.8830566">
        <ele>24.2</ele>
        <time>2013-03-24T17:26:16Z</time>
      </trkpt>
      <trkpt lat="59.4783122" lon="17.8830459">
        <ele>25.4</ele>
        <time>2013-03-24T17:26:18Z</time>
      </trkpt>
      <trkpt lat="59.4782209" lon="17.8829786">
        <ele>25.2</ele>
        <time>2013-03-24T17:26:21Z</time>
      </trkpt>
      <trkpt lat="59.478197" lon="17.8829451">
        <ele>25.2</ele>
        <time>2013-03-24T17:26:22Z</time>
      </trkpt>
      <trkpt lat="59.4781533" lon="17.8828238">
        <ele>25.4</ele>
        <time>2013-03-24T17:26:24Z</time>
      </trkpt>
      <trkpt lat="59.4780764" lon="17.8824888">
        <ele>26</ele>
        <time>2013-03-24T17:26:29Z</time>
      </trkpt>
      <trkpt lat="59.4780437" lon="17.882084">
        <ele>28</ele>
        <time>2013-03-24T17:26:35Z</time>
      </trkpt>
      <trkpt lat="59.4780339" lon="17.8817221">
        <ele>25.6</ele>
        <time>2013-03-24T17:26:41Z</time>
      </trkpt>
      <trkpt lat="59.4779068" lon="17.8814745">
        <ele>25.2</ele>
        <time>2013-03-24T17:26:47Z</time>
      </trkpt>
      <trkpt lat="59.477881" lon="17.8814625">
        <ele>25.4</ele>
        <time>2013-03-24T17:26:48Z</time>
      </trkpt>
      <trkpt lat="59.4777236" lon="17.881587">
        <ele>24.2</ele>
        <time>2013-03-24T17:26:53Z</time>
      </trkpt>
      <trkpt lat="59.4776857" lon="17.8819801">
        <ele>22.8</ele>
        <time>2013-03-24T17:26:57Z</time>
      </trkpt>
      <trkpt lat="59.4778193" lon="17.8822805">
        <ele>20.2</ele>
        <time>2013-03-24T17:27:01Z</time>
      </trkpt>
      <trkpt lat="59.4779919" lon="17.882583">
        <ele>18.2</ele>
        <time>2013-03-24T17:27:05Z</time>
      </trkpt>
      <trkpt lat="59.4781057" lon="17.8828265">
        <ele>17.8</ele>
        <time>2013-03-24T17:27:08Z</time>
      </trkpt>
      <trkpt lat="59.4781412" lon="17.8829188">
        <ele>17.8</ele>
        <time>2013-03-24T17:27:09Z</time>
      </trkpt>
      <trkpt lat="59.4782424" lon="17.8832005">
        <ele>15.8</ele>
        <time>2013-03-24T17:27:12Z</time>
      </trkpt>
      <trkpt lat="59.4782515" lon="17.883645">
        <ele>13</ele>
        <time>2013-03-24T17:27:16Z</time>
      </trkpt>
      <trkpt lat="59.4782378" lon="17.8838797">
        <ele>10.6</ele>
        <time>2013-03-24T17:27:18Z</time>
      </trkpt>
      <trkpt lat="59.4782341" lon="17.8841278">
        <ele>8.6</ele>
        <time>2013-03-24T17:27:20Z</time>
      </trkpt>
      <trkpt lat="59.4782218" lon="17.8845214">
        <ele>8.4</ele>
        <time>2013-03-24T17:27:23Z</time>
      </trkpt>
      <trkpt lat="59.4781908" lon="17.8847593">
        <ele>9.2</ele>
        <time>2013-03-24T17:27:25Z</time>
      </trkpt>
      <trkpt lat="59.4781627" lon="17.8848698">
        <ele>11</ele>
        <time>2013-03-24T17:27:26Z</time>
      </trkpt>
      <trkpt lat="59.47801" lon="17.8850493">
        <ele>9.8</ele>
        <time>2013-03-24T17:27:29Z</time>
      </trkpt>
      <trkpt lat="59.4778173" lon="17.8849151">
        <ele>10.8</ele>
        <time>2013-03-24T17:27:33Z</time>
      </trkpt>
      <trkpt lat="59.477776" lon="17.8848985">
        <ele>10.8</ele>
        <time>2013-03-24T17:27:34Z</time>
      </trkpt>
      <trkpt lat="59.4776836" lon="17.8848771">
        <ele>10.8</ele>
        <time>2013-03-24T17:27:36Z</time>
      </trkpt>
      <trkpt lat="59.4776354" lon="17.8848934">
        <ele>10.6</ele>
        <time>2013-03-24T17:27:37Z</time>
      </trkpt>
      <trkpt lat="59.4775346" lon="17.8849519">
        <ele>10.2</ele>
        <time>2013-03-24T17:27:39Z</time>
      </trkpt>
      <trkpt lat="59.4774491" lon="17.8850362">
        <ele>11.4</ele>
        <time>2013-03-24T17:27:41Z</time>
      </trkpt>
      <trkpt lat="59.4772854" lon="17.8852288">
        <ele>13</ele>
        <time>2013-03-24T17:27:45Z</time>
      </trkpt>
      <trkpt lat="59.4772044" lon="17.8853043">
        <ele>13</ele>
        <time>2013-03-24T17:27:47Z</time>
      </trkpt>
      <trkpt lat="59.4771062" lon="17.885334">
        <ele>14.2</ele>
        <time>2013-03-24T17:27:49Z</time>
      </trkpt>
      <trkpt lat="59.4768837" lon="17.8853713">
        <ele>15.2</ele>
        <time>2013-03-24T17:27:53Z</time>
      </trkpt>
      <trkpt lat="59.4768383" lon="17.885391">
        <ele>15</ele>
        <time>2013-03-24T17:27:54Z</time>
      </trkpt>
      <trkpt lat="59.4767451" lon="17.8854438">
        <ele>16</ele>
        <time>2013-03-24T17:27:56Z</time>
      </trkpt>
      <trkpt lat="59.4766998" lon="17.885485">
        <ele>16</ele>
        <time>2013-03-24T17:27:57Z</time>
      </trkpt>
      <trkpt lat="59.4766566" lon="17.8855321">
        <ele>16</ele>
        <time>2013-03-24T17:27:58Z</time>
      </trkpt>
      <trkpt lat="59.4765485" lon="17.8857209">
        <ele>15.8</ele>
        <time>2013-03-24T17:28:01Z</time>
      </trkpt>
      <trkpt lat="59.4765161" lon="17.8857931">
        <ele>15.8</ele>
        <time>2013-03-24T17:28:02Z</time>
      </trkpt>
      <trkpt lat="59.476414" lon="17.8860357">
        <ele>14</ele>
        <time>2013-03-24T17:28:05Z</time>
      </trkpt>
      <trkpt lat="59.4762943" lon="17.8863117">
        <ele>12</ele>
        <time>2013-03-24T17:28:08Z</time>
      </trkpt>
      <trkpt lat="59.4762555" lon="17.8864068">
        <ele>11.2</ele>
        <time>2013-03-24T17:28:09Z</time>
      </trkpt>
      <trkpt lat="59.4761771" lon="17.8865811">
        <ele>11.2</ele>
        <time>2013-03-24T17:28:11Z</time>
      </trkpt>
      <trkpt lat="59.4760514" lon="17.8869419">
        <ele>9.4</ele>
        <time>2013-03-24T17:28:15Z</time>
      </trkpt>
      <trkpt lat="59.476052" lon="17.8873534">
        <ele>8.4</ele>
        <time>2013-03-24T17:28:19Z</time>
      </trkpt>
      <trkpt lat="59.4760748" lon="17.8876962">
        <ele>7</ele>
        <time>2013-03-24T17:28:22Z</time>
      </trkpt>
      <trkpt lat="59.4760912" lon="17.8878025">
        <ele>6.2</ele>
        <time>2013-03-24T17:28:23Z</time>
      </trkpt>
      <trkpt lat="59.4761818" lon="17.888104">
        <ele>4.8</ele>
        <time>2013-03-24T17:28:26Z</time>
      </trkpt>
      <trkpt lat="59.4762136" lon="17.8881877">
        <ele>4.8</ele>
        <time>2013-03-24T17:28:27Z</time>
      </trkpt>
      <trkpt lat="59.4763338" lon="17.8885144">
        <ele>3.8</ele>
        <time>2013-03-24T17:28:31Z</time>
      </trkpt>
      <trkpt lat="59.4765431" lon="17.8886596">
        <ele>2.4</ele>
        <time>2013-03-24T17:28:35Z</time>
      </trkpt>
      <trkpt lat="59.4766006" lon="17.8886905">
        <ele>2.4</ele>
        <time>2013-03-24T17:28:36Z</time>
      </trkpt>
      <trkpt lat="59.47671" lon="17.8887431">
        <ele>2.4</ele>
        <time>2013-03-24T17:28:38Z</time>
      </trkpt>
      <trkpt lat="59.4767631" lon="17.8887395">
        <ele>2.2</ele>
        <time>2013-03-24T17:28:39Z</time>
      </trkpt>
      <trkpt lat="59.4769246" lon="17.8886136">
        <ele>3.2</ele>
        <time>2013-03-24T17:28:42Z</time>
      </trkpt>
      <trkpt lat="59.4769797" lon="17.8885623">
        <ele>3.8</ele>
        <time>2013-03-24T17:28:43Z</time>
      </trkpt>
      <trkpt lat="59.4770315" lon="17.888518">
        <ele>4</ele>
        <time>2013-03-24T17:28:44Z</time>
      </trkpt>
      <trkpt lat="59.4771562" lon="17.8884142">
        <ele>5</ele>
        <time>2013-03-24T17:28:47Z</time>
      </trkpt>
      <trkpt lat="59.4772366" lon="17.888353">
        <ele>5.4</ele>
        <time>2013-03-24T17:28:49Z</time>
      </trkpt>
      <trkpt lat="59.4773538" lon="17.8882289">
        <ele>5.8</ele>
        <time>2013-03-24T17:28:52Z</time>
      </trkpt>
      <trkpt lat="59.4773917" lon="17.8881935">
        <ele>6</ele>
        <time>2013-03-24T17:28:53Z</time>
      </trkpt>
      <trkpt lat="59.477544" lon="17.8880304">
        <ele>6.2</ele>
        <time>2013-03-24T17:28:57Z</time>
      </trkpt>
      <trkpt lat="59.477746" lon="17.8878655">
        <ele>5.6</ele>
        <time>2013-03-24T17:29:02Z</time>
      </trkpt>
      <trkpt lat="59.4777935" lon="17.8878388">
        <ele>5.4</ele>
        <time>2013-03-24T17:29:03Z</time>
      </trkpt>
      <trkpt lat="59.4778811" lon="17.8877829">
        <ele>5.4</ele>
        <time>2013-03-24T17:29:05Z</time>
      </trkpt>
      <trkpt lat="59.4779173" lon="17.8877497">
        <ele>4.6</ele>
        <time>2013-03-24T17:29:06Z</time>
      </trkpt>
      <trkpt lat="59.4780303" lon="17.8876076">
        <ele>5</ele>
        <time>2013-03-24T17:29:09Z</time>
      </trkpt>
      <trkpt lat="59.4780712" lon="17.8875616">
        <ele>5</ele>
        <time>2013-03-24T17:29:10Z</time>
      </trkpt>
      <trkpt lat="59.4782647" lon="17.8874499">
        <ele>5.4</ele>
        <time>2013-03-24T17:29:15Z</time>
      </trkpt>
      <trkpt lat="59.4783721" lon="17.887418">
        <ele>5</ele>
        <time>2013-03-24T17:29:18Z</time>
      </trkpt>
      <trkpt lat="59.4784675" lon="17.8874514">
        <ele>5.2</ele>
        <time>2013-03-24T17:29:20Z</time>
      </trkpt>
      <trkpt lat="59.4785556" lon="17.8875879">
        <ele>5.2</ele>
        <time>2013-03-24T17:29:22Z</time>
      </trkpt>
      <trkpt lat="59.4786309" lon="17.8877237">
        <ele>4.4</ele>
        <time>2013-03-24T17:29:24Z</time>
      </trkpt>
      <trkpt lat="59.4786508" lon="17.8877864">
        <ele>3.6</ele>
        <time>2013-03-24T17:29:25Z</time>
      </trkpt>
      <trkpt lat="59.4786188" lon="17.8880981">
        <ele>2</ele>
        <time>2013-03-24T17:29:29Z</time>
      </trkpt>
      <trkpt lat="59.4785928" lon="17.8884065">
        <ele>0.8</ele>
        <time>2013-03-24T17:29:33Z</time>
      </trkpt>
      <trkpt lat="59.4785838" lon="17.888498">
        <ele>1.8</ele>
        <time>2013-03-24T17:29:34Z</time>
      </trkpt>
      <trkpt lat="59.4785382" lon="17.8887489">
        <ele>2</ele>
        <time>2013-03-24T17:29:37Z</time>
      </trkpt>
      <trkpt lat="59.4785114" lon="17.8888344">
        <ele>2.2</ele>
        <time>2013-03-24T17:29:38Z</time>
      </trkpt>
      <trkpt lat="59.4784773" lon="17.8889131">
        <ele>2.2</ele>
        <time>2013-03-24T17:29:39Z</time>
      </trkpt>
      <trkpt lat="59.4783193" lon="17.8890854">
        <ele>2.6</ele>
        <time>2013-03-24T17:29:42Z</time>
      </trkpt>
      <trkpt lat="59.478259" lon="17.8891436">
        <ele>2.4</ele>
        <time>2013-03-24T17:29:43Z</time>
      </trkpt>
      <trkpt lat="59.4781328" lon="17.8892491">
        <ele>2</ele>
        <time>2013-03-24T17:29:45Z</time>
      </trkpt>
      <trkpt lat="59.4779319" lon="17.8894007">
        <ele>1.6</ele>
        <time>2013-03-24T17:29:48Z</time>
      </trkpt>
      <trkpt lat="59.4777255" lon="17.8895305">
        <ele>1.8</ele>
        <time>2013-03-24T17:29:51Z</time>
      </trkpt>
      <trkpt lat="59.477525" lon="17.8896473">
        <ele>2</ele>
        <time>2013-03-24T17:29:54Z</time>
      </trkpt>
      <trkpt lat="59.4773475" lon="17.8897628">
        <ele>1.6</ele>
        <time>2013-03-24T17:29:57Z</time>
      </trkpt>
      <trkpt lat="59.4771596" lon="17.8898358">
        <ele>2</ele>
        <time>2013-03-24T17:30:00Z</time>
      </trkpt>
      <trkpt lat="59.4769653" lon="17.8897719">
        <ele>3.2</ele>
        <time>2013-03-24T17:30:03Z</time>
      </trkpt>
      <trkpt lat="59.4767388" lon="17.8897154">
        <ele>2.8</ele>
        <time>2013-03-24T17:30:07Z</time>
      </trkpt>
      <trkpt lat="59.476556" lon="17.88972">
        <ele>3.2</ele>
        <time>2013-03-24T17:30:10Z</time>
      </trkpt>
      <trkpt lat="59.4764356" lon="17.8897646">
        <ele>3.2</ele>
        <time>2013-03-24T17:30:12Z</time>
      </trkpt>
      <trkpt lat="59.4763772" lon="17.8897969">
        <ele>3.8</ele>
        <time>2013-03-24T17:30:13Z</time>
      </trkpt>
      <trkpt lat="59.4762005" lon="17.8897134">
        <ele>5.6</ele>
        <time>2013-03-24T17:30:17Z</time>
      </trkpt>
      <trkpt lat="59.4760939" lon="17.8895275">
        <ele>6.4</ele>
        <time>2013-03-24T17:30:20Z</time>
      </trkpt>
      <trkpt lat="59.4760614" lon="17.8894617">
        <ele>7.2</ele>
        <time>2013-03-24T17:30:21Z</time>
      </trkpt>
      <trkpt lat="59.4760286" lon="17.8894066">
        <ele>7.4</ele>
        <time>2013-03-24T17:30:22Z</time>
      </trkpt>
      <trkpt lat="59.4758979" lon="17.8892711">
        <ele>9.4</ele>
        <time>2013-03-24T17:30:26Z</time>
      </trkpt>
      <trkpt lat="59.4757132" lon="17.8893249">
        <ele>9.6</ele>
        <time>2013-03-24T17:30:30Z</time>
      </trkpt>
      <trkpt lat="59.4755934" lon="17.8896093">
        <ele>10.8</ele>
        <time>2013-03-24T17:30:34Z</time>
      </trkpt>
      <trkpt lat="59.4756956" lon="17.8898854">
        <ele>7.8</ele>
        <time>2013-03-24T17:30:38Z</time>
      </trkpt>
      <trkpt lat="59.4758156" lon="17.8900806">
        <ele>5.6</ele>
        <time>2013-03-24T17:30:41Z</time>
      </trkpt>
      <trkpt lat="59.4758552" lon="17.8901771">
        <ele>6</ele>
        <time>2013-03-24T17:30:42Z</time>
      </trkpt>
      <trkpt lat="59.4759414" lon="17.8905126">
        <ele>5.4</ele>
        <time>2013-03-24T17:30:45Z</time>
      </trkpt>
      <trkpt lat="59.4760099" lon="17.8908568">
        <ele>4.4</ele>
        <time>2013-03-24T17:30:48Z</time>
      </trkpt>
      <trkpt lat="59.4760256" lon="17.8909722">
        <ele>4.6</ele>
        <time>2013-03-24T17:30:49Z</time>
      </trkpt>
      <trkpt lat="59.4760685" lon="17.8912966">
        <ele>4.6</ele>
        <time>2013-03-24T17:30:52Z</time>
      </trkpt>
      <trkpt lat="59.4761937" lon="17.8915467">
        <ele>4</ele>
        <time>2013-03-24T17:30:56Z</time>
      </trkpt>
      <trkpt lat="59.4763398" lon="17.8913224">
        <ele>6.6</ele>
        <time>2013-03-24T17:31:00Z</time>
      </trkpt>
      <trkpt lat="59.4762774" lon="17.8909955">
        <ele>9.2</ele>
        <time>2013-03-24T17:31:04Z</time>
      </trkpt>
      <trkpt lat="59.4762503" lon="17.8909048">
        <ele>10.4</ele>
        <time>2013-03-24T17:31:05Z</time>
      </trkpt>
      <trkpt lat="59.4761888" lon="17.8906583">
        <ele>13.6</ele>
        <time>2013-03-24T17:31:08Z</time>
      </trkpt>
      <trkpt lat="59.476179" lon="17.8905712">
        <ele>14.2</ele>
        <time>2013-03-24T17:31:09Z</time>
      </trkpt>
      <trkpt lat="59.4762092" lon="17.8902403">
        <ele>14</ele>
        <time>2013-03-24T17:31:13Z</time>
      </trkpt>
      <trkpt lat="59.4763953" lon="17.8901802">
        <ele>10.8</ele>
        <time>2013-03-24T17:31:17Z</time>
      </trkpt>
      <trkpt lat="59.4764384" lon="17.8902106">
        <ele>10</ele>
        <time>2013-03-24T17:31:18Z</time>
      </trkpt>
      <trkpt lat="59.4764841" lon="17.8902575">
        <ele>9.2</ele>
        <time>2013-03-24T17:31:19Z</time>
      </trkpt>
      <trkpt lat="59.4765644" lon="17.8903615">
        <ele>8.6</ele>
        <time>2013-03-24T17:31:21Z</time>
      </trkpt>
      <trkpt lat="59.476606" lon="17.8904092">
        <ele>7.8</ele>
        <time>2013-03-24T17:31:22Z</time>
      </trkpt>
      <trkpt lat="59.4767618" lon="17.8905636">
        <ele>3.6</ele>
        <time>2013-03-24T17:31:26Z</time>
      </trkpt>
      <trkpt lat="59.4768886" lon="17.8906752">
        <ele>1</ele>
        <time>2013-03-24T17:31:29Z</time>
      </trkpt>
      <trkpt lat="59.4769373" lon="17.8907225">
        <ele>0.4</ele>
        <time>2013-03-24T17:31:30Z</time>
      </trkpt>
      <trkpt lat="59.4771238" lon="17.89087">
        <ele>0</ele>
        <time>2013-03-24T17:31:34Z</time>
      </trkpt>
      <trkpt lat="59.4773372" lon="17.8909977">
        <ele>0</ele>
        <time>2013-03-24T17:31:38Z</time>
      </trkpt>
      <trkpt lat="59.4774481" lon="17.8910404">
        <ele>0</ele>
        <time>2013-03-24T17:31:40Z</time>
      </trkpt>
      <trkpt lat="59.4775572" lon="17.8910541">
        <ele>0</ele>
        <time>2013-03-24T17:31:42Z</time>
      </trkpt>
      <trkpt lat="59.4777455" lon="17.8910564">
        <ele>0</ele>
        <time>2013-03-24T17:31:46Z</time>
      </trkpt>
      <trkpt lat="59.4778373" lon="17.8910327">
        <ele>0</ele>
        <time>2013-03-24T17:31:48Z</time>
      </trkpt>
      <trkpt lat="59.4779412" lon="17.890966">
        <ele>0</ele>
        <time>2013-03-24T17:31:50Z</time>
      </trkpt>
      <trkpt lat="59.4779878" lon="17.8909229">
        <ele>0</ele>
        <time>2013-03-24T17:31:51Z</time>
      </trkpt>
      <trkpt lat="59.4781245" lon="17.8907591">
        <ele>1.6</ele>
        <time>2013-03-24T17:31:54Z</time>
      </trkpt>
      <trkpt lat="59.4782116" lon="17.8906494">
        <ele>1.2</ele>
        <time>2013-03-24T17:31:56Z</time>
      </trkpt>
      <trkpt lat="59.4782996" lon="17.890565">
        <ele>0.4</ele>
        <time>2013-03-24T17:31:58Z</time>
      </trkpt>
      <trkpt lat="59.4784707" lon="17.8904009">
        <ele>0</ele>
        <time>2013-03-24T17:32:02Z</time>
      </trkpt>
      <trkpt lat="59.4786466" lon="17.8902614">
        <ele>0</ele>
        <time>2013-03-24T17:32:06Z</time>
      </trkpt>
      <trkpt lat="59.4786858" lon="17.8902127">
        <ele>0</ele>
        <time>2013-03-24T17:32:07Z</time>
      </trkpt>
      <trkpt lat="59.4787518" lon="17.8901065">
        <ele>0</ele>
        <time>2013-03-24T17:32:09Z</time>
      </trkpt>
      <trkpt lat="59.4788166" lon="17.8900304">
        <ele>0</ele>
        <time>2013-03-24T17:32:11Z</time>
      </trkpt>
      <trkpt lat="59.4788434" lon="17.8899954">
        <ele>0</ele>
        <time>2013-03-24T17:32:12Z</time>
      </trkpt>
      <trkpt lat="59.4790018" lon="17.8898927">
        <ele>0</ele>
        <time>2013-03-24T17:32:17Z</time>
      </trkpt>
      <trkpt lat="59.4791664" lon="17.8897166">
        <ele>0.8</ele>
        <time>2013-03-24T17:32:22Z</time>
      </trkpt>
      <trkpt lat="59.4793505" lon="17.8895326">
        <ele>3.4</ele>
        <time>2013-03-24T17:32:26Z</time>
      </trkpt>
      <trkpt lat="59.4793948" lon="17.8895007">
        <ele>3.8</ele>
        <time>2013-03-24T17:32:27Z</time>
      </trkpt>
      <trkpt lat="59.4795589" lon="17.8894213">
        <ele>3.8</ele>
        <time>2013-03-24T17:32:31Z</time>
      </trkpt>
      <trkpt lat="59.4797879" lon="17.8894233">
        <ele>6.8</ele>
        <time>2013-03-24T17:32:36Z</time>
      </trkpt>
      <trkpt lat="59.4798407" lon="17.8894409">
        <ele>6.4</ele>
        <time>2013-03-24T17:32:37Z</time>
      </trkpt>
      <trkpt lat="59.4799934" lon="17.8895114">
        <ele>6.2</ele>
        <time>2013-03-24T17:32:40Z</time>
      </trkpt>
      <trkpt lat="59.4802319" lon="17.8895746">
        <ele>6.2</ele>
        <time>2013-03-24T17:32:44Z</time>
      </trkpt>
      <trkpt lat="59.4804093" lon="17.8895524">
        <ele>7.2</ele>
        <time>2013-03-24T17:32:47Z</time>
      </trkpt>
      <trkpt lat="59.480459" lon="17.8895327">
        <ele>7</ele>
        <time>2013-03-24T17:32:48Z</time>
      </trkpt>
      <trkpt lat="59.4805586" lon="17.8895016">
        <ele>7.2</ele>
        <time>2013-03-24T17:32:50Z</time>
      </trkpt>
      <trkpt lat="59.4806623" lon="17.8894917">
        <ele>7</ele>
        <time>2013-03-24T17:32:52Z</time>
      </trkpt>
      <trkpt lat="59.4808685" lon="17.889469">
        <ele>8.2</ele>
        <time>2013-03-24T17:32:56Z</time>
      </trkpt>
      <trkpt lat="59.4809143" lon="17.8894537">
        <ele>8.4</ele>
        <time>2013-03-24T17:32:57Z</time>
      </trkpt>
      <trkpt lat="59.4810092" lon="17.8894047">
        <ele>7.2</ele>
        <time>2013-03-24T17:32:59Z</time>
      </trkpt>
      <trkpt lat="59.4810594" lon="17.8893778">
        <ele>7</ele>
        <time>2013-03-24T17:33:00Z</time>
      </trkpt>
      <trkpt lat="59.4812326" lon="17.8891732">
        <ele>4.8</ele>
        <time>2013-03-24T17:33:04Z</time>
      </trkpt>
      <trkpt lat="59.4813291" lon="17.8890519">
        <ele>5.2</ele>
        <time>2013-03-24T17:33:07Z</time>
      </trkpt>
      <trkpt lat="59.4814175" lon="17.8889694">
        <ele>5.4</ele>
        <time>2013-03-24T17:33:10Z</time>
      </trkpt>
      <trkpt lat="59.4814564" lon="17.8889406">
        <ele>5.6</ele>
        <time>2013-03-24T17:33:11Z</time>
      </trkpt>
      <trkpt lat="59.4816004" lon="17.8889162">
        <ele>5.2</ele>
        <time>2013-03-24T17:33:14Z</time>
      </trkpt>
      <trkpt lat="59.481648" lon="17.8889327">
        <ele>5.2</ele>
        <time>2013-03-24T17:33:15Z</time>
      </trkpt>
      <trkpt lat="59.4818122" lon="17.8889934">
        <ele>4.4</ele>
        <time>2013-03-24T17:33:18Z</time>
      </trkpt>
      <trkpt lat="59.4818707" lon="17.8889987">
        <ele>4.4</ele>
        <time>2013-03-24T17:33:19Z</time>
      </trkpt>
      <trkpt lat="59.4820317" lon="17.8889375">
        <ele>2.8</ele>
        <time>2013-03-24T17:33:22Z</time>
      </trkpt>
      <trkpt lat="59.4820857" lon="17.888894">
        <ele>2.6</ele>
        <time>2013-03-24T17:33:23Z</time>
      </trkpt>
      <trkpt lat="59.4822161" lon="17.8887329">
        <ele>1.4</ele>
        <time>2013-03-24T17:33:26Z</time>
      </trkpt>
      <trkpt lat="59.4822948" lon="17.8885996">
        <ele>2.6</ele>
        <time>2013-03-24T17:33:28Z</time>
      </trkpt>
      <trkpt lat="59.4823552" lon="17.8884557">
        <ele>1.6</ele>
        <time>2013-03-24T17:33:30Z</time>
      </trkpt>
      <trkpt lat="59.4824846" lon="17.8881185">
        <ele>2.2</ele>
        <time>2013-03-24T17:33:35Z</time>
      </trkpt>
      <trkpt lat="59.4825499" lon="17.8878962">
        <ele>2</ele>
        <time>2013-03-24T17:33:38Z</time>
      </trkpt>
      <trkpt lat="59.4825785" lon="17.8878113">
        <ele>1.8</ele>
        <time>2013-03-24T17:33:39Z</time>
      </trkpt>
      <trkpt lat="59.4827043" lon="17.8874936">
        <ele>0.2</ele>
        <time>2013-03-24T17:33:43Z</time>
      </trkpt>
      <trkpt lat="59.4828403" lon="17.8872124">
        <ele>0</ele>
        <time>2013-03-24T17:33:47Z</time>
      </trkpt>
      <trkpt lat="59.482911" lon="17.8870805">
        <ele>0.4</ele>
        <time>2013-03-24T17:33:49Z</time>
      </trkpt>
      <trkpt lat="59.4829771" lon="17.8869611">
        <ele>0</ele>
        <time>2013-03-24T17:33:51Z</time>
      </trkpt>
      <trkpt lat="59.4830105" lon="17.8869083">
        <ele>0</ele>
        <time>2013-03-24T17:33:52Z</time>
      </trkpt>
      <trkpt lat="59.4831758" lon="17.8867593">
        <ele>0</ele>
        <time>2013-03-24T17:33:56Z</time>
      </trkpt>
      <trkpt lat="59.4832226" lon="17.8867416">
        <ele>0</ele>
        <time>2013-03-24T17:33:57Z</time>
      </trkpt>
      <trkpt lat="59.4833625" lon="17.8867364">
        <ele>0</ele>
        <time>2013-03-24T17:34:00Z</time>
      </trkpt>
      <trkpt lat="59.483466" lon="17.8867067">
        <ele>0</ele>
        <time>2013-03-24T17:34:02Z</time>
      </trkpt>
      <trkpt lat="59.4835553" lon="17.886636">
        <ele>0</ele>
        <time>2013-03-24T17:34:04Z</time>
      </trkpt>
      <trkpt lat="59.4836906" lon="17.886521">
        <ele>0</ele>
        <time>2013-03-24T17:34:07Z</time>
      </trkpt>
      <trkpt lat="59.4837355" lon="17.8864764">
        <ele>0</ele>
        <time>2013-03-24T17:34:08Z</time>
      </trkpt>
      <trkpt lat="59.4837808" lon="17.8864377">
        <ele>0</ele>
        <time>2013-03-24T17:34:09Z</time>
      </trkpt>
      <trkpt lat="59.4839159" lon="17.8863265">
        <ele>0</ele>
        <time>2013-03-24T17:34:12Z</time>
      </trkpt>
      <trkpt lat="59.4839607" lon="17.8862832">
        <ele>0</ele>
        <time>2013-03-24T17:34:13Z</time>
      </trkpt>
      <trkpt lat="59.4840868" lon="17.8861604">
        <ele>0</ele>
        <time>2013-03-24T17:34:16Z</time>
      </trkpt>
      <trkpt lat="59.4841309" lon="17.8861305">
        <ele>0</ele>
        <time>2013-03-24T17:34:17Z</time>
      </trkpt>
      <trkpt lat="59.4842163" lon="17.8860835">
        <ele>0</ele>
        <time>2013-03-24T17:34:19Z</time>
      </trkpt>
      <trkpt lat="59.4842608" lon="17.8860707">
        <ele>0</ele>
        <time>2013-03-24T17:34:20Z</time>
      </trkpt>
      <trkpt lat="59.4844575" lon="17.885981">
        <ele>0</ele>
        <time>2013-03-24T17:34:25Z</time>
      </trkpt>
      <trkpt lat="59.4845303" lon="17.8858965">
        <ele>0</ele>
        <time>2013-03-24T17:34:27Z</time>
      </trkpt>
      <trkpt lat="59.4846067" lon="17.885747">
        <ele>0</ele>
        <time>2013-03-24T17:34:30Z</time>
      </trkpt>
      <trkpt lat="59.4847482" lon="17.8854707">
        <ele>0</ele>
        <time>2013-03-24T17:34:36Z</time>
      </trkpt>
      <trkpt lat="59.4849448" lon="17.8852866">
        <ele>0</ele>
        <time>2013-03-24T17:34:42Z</time>
      </trkpt>
      <trkpt lat="59.4849901" lon="17.8852837">
        <ele>0</ele>
        <time>2013-03-24T17:34:43Z</time>
      </trkpt>
      <trkpt lat="59.4851306" lon="17.8853755">
        <ele>0</ele>
        <time>2013-03-24T17:34:46Z</time>
      </trkpt>
      <trkpt lat="59.4852411" lon="17.8857397">
        <ele>0</ele>
        <time>2013-03-24T17:34:50Z</time>
      </trkpt>
      <trkpt lat="59.4852647" lon="17.8858506">
        <ele>0</ele>
        <time>2013-03-24T17:34:51Z</time>
      </trkpt>
      <trkpt lat="59.4853205" lon="17.8860713">
        <ele>0</ele>
        <time>2013-03-24T17:34:53Z</time>
      </trkpt>
      <trkpt lat="59.4853839" lon="17.8862747">
        <ele>0</ele>
        <time>2013-03-24T17:34:55Z</time>
      </trkpt>
      <trkpt lat="59.4854604" lon="17.8864254">
        <ele>0</ele>
        <time>2013-03-24T17:34:57Z</time>
      </trkpt>
      <trkpt lat="59.4856678" lon="17.8865637">
        <ele>0</ele>
        <time>2013-03-24T17:35:01Z</time>
      </trkpt>
      <trkpt lat="59.4857667" lon="17.8866014">
        <ele>0</ele>
        <time>2013-03-24T17:35:03Z</time>
      </trkpt>
      <trkpt lat="59.4858693" lon="17.8866246">
        <ele>0</ele>
        <time>2013-03-24T17:35:05Z</time>
      </trkpt>
      <trkpt lat="59.4859791" lon="17.8866187">
        <ele>0</ele>
        <time>2013-03-24T17:35:07Z</time>
      </trkpt>
      <trkpt lat="59.4860718" lon="17.88658">
        <ele>0</ele>
        <time>2013-03-24T17:35:09Z</time>
      </trkpt>
      <trkpt lat="59.4862531" lon="17.8864862">
        <ele>0</ele>
        <time>2013-03-24T17:35:13Z</time>
      </trkpt>
      <trkpt lat="59.4864417" lon="17.8864018">
        <ele>0</ele>
        <time>2013-03-24T17:35:17Z</time>
      </trkpt>
      <trkpt lat="59.4864894" lon="17.8863827">
        <ele>0</ele>
        <time>2013-03-24T17:35:18Z</time>
      </trkpt>
      <trkpt lat="59.4866456" lon="17.8863337">
        <ele>1</ele>
        <time>2013-03-24T17:35:21Z</time>
      </trkpt>
      <trkpt lat="59.486842" lon="17.8862536">
        <ele>1.8</ele>
        <time>2013-03-24T17:35:25Z</time>
      </trkpt>
      <trkpt lat="59.4868924" lon="17.8862437">
        <ele>2.4</ele>
        <time>2013-03-24T17:35:26Z</time>
      </trkpt>
      <trkpt lat="59.4870255" lon="17.8861533">
        <ele>6</ele>
        <time>2013-03-24T17:35:29Z</time>
      </trkpt>
      <trkpt lat="59.4870778" lon="17.8858268">
        <ele>5.8</ele>
        <time>2013-03-24T17:35:34Z</time>
      </trkpt>
      <trkpt lat="59.4869202" lon="17.8856477">
        <ele>8</ele>
        <time>2013-03-24T17:35:40Z</time>
      </trkpt>
      <trkpt lat="59.4868473" lon="17.8856501">
        <ele>10</ele>
        <time>2013-03-24T17:35:42Z</time>
      </trkpt>
      <trkpt lat="59.4867055" lon="17.8856265">
        <ele>10.6</ele>
        <time>2013-03-24T17:35:45Z</time>
      </trkpt>
      <trkpt lat="59.4865154" lon="17.8855559">
        <ele>12.2</ele>
        <time>2013-03-24T17:35:49Z</time>
      </trkpt>
      <trkpt lat="59.4864774" lon="17.8855331">
        <ele>12.6</ele>
        <time>2013-03-24T17:35:50Z</time>
      </trkpt>
      <trkpt lat="59.4863583" lon="17.8853671">
        <ele>13.6</ele>
        <time>2013-03-24T17:35:54Z</time>
      </trkpt>
      <trkpt lat="59.486303" lon="17.8850435">
        <ele>15.2</ele>
        <time>2013-03-24T17:36:00Z</time>
      </trkpt>
      <trkpt lat="59.4864133" lon="17.8847438">
        <ele>19</ele>
        <time>2013-03-24T17:36:06Z</time>
      </trkpt>
      <trkpt lat="59.4865785" lon="17.8844697">
        <ele>19.4</ele>
        <time>2013-03-24T17:36:12Z</time>
      </trkpt>
      <trkpt lat="59.4867375" lon="17.8842952">
        <ele>19</ele>
        <time>2013-03-24T17:36:16Z</time>
      </trkpt>
      <trkpt lat="59.4869521" lon="17.8840987">
        <ele>17.8</ele>
        <time>2013-03-24T17:36:20Z</time>
      </trkpt>
      <trkpt lat="59.4870079" lon="17.8840427">
        <ele>17</ele>
        <time>2013-03-24T17:36:21Z</time>
      </trkpt>
      <trkpt lat="59.4871186" lon="17.8839365">
        <ele>14.6</ele>
        <time>2013-03-24T17:36:23Z</time>
      </trkpt>
      <trkpt lat="59.4872947" lon="17.8837931">
        <ele>12.4</ele>
        <time>2013-03-24T17:36:26Z</time>
      </trkpt>
      <trkpt lat="59.4874103" lon="17.8837279">
        <ele>11.4</ele>
        <time>2013-03-24T17:36:28Z</time>
      </trkpt>
      <trkpt lat="59.4875201" lon="17.8836843">
        <ele>10</ele>
        <time>2013-03-24T17:36:30Z</time>
      </trkpt>
      <trkpt lat="59.4875729" lon="17.8836615">
        <ele>9.2</ele>
        <time>2013-03-24T17:36:31Z</time>
      </trkpt>
      <trkpt lat="59.4877239" lon="17.8835612">
        <ele>7.8</ele>
        <time>2013-03-24T17:36:34Z</time>
      </trkpt>
      <trkpt lat="59.4877735" lon="17.8835279">
        <ele>7</ele>
        <time>2013-03-24T17:36:35Z</time>
      </trkpt>
      <trkpt lat="59.4879158" lon="17.8834496">
        <ele>5.2</ele>
        <time>2013-03-24T17:36:38Z</time>
      </trkpt>
      <trkpt lat="59.4881198" lon="17.8833445">
        <ele>2.4</ele>
        <time>2013-03-24T17:36:42Z</time>
      </trkpt>
      <trkpt lat="59.4882496" lon="17.8832264">
        <ele>1.2</ele>
        <time>2013-03-24T17:36:45Z</time>
      </trkpt>
      <trkpt lat="59.4882893" lon="17.883188">
        <ele>0.4</ele>
        <time>2013-03-24T17:36:46Z</time>
      </trkpt>
      <trkpt lat="59.4884164" lon="17.8830669">
        <ele>0</ele>
        <time>2013-03-24T17:36:49Z</time>
      </trkpt>
      <trkpt lat="59.4884618" lon="17.883025">
        <ele>0</ele>
        <time>2013-03-24T17:36:50Z</time>
      </trkpt>
      <trkpt lat="59.4885779" lon="17.8828911">
        <ele>0</ele>
        <time>2013-03-24T17:36:53Z</time>
      </trkpt>
      <trkpt lat="59.4886154" lon="17.8828374">
        <ele>0.4</ele>
        <time>2013-03-24T17:36:54Z</time>
      </trkpt>
      <trkpt lat="59.4887663" lon="17.8825492">
        <ele>1.8</ele>
        <time>2013-03-24T17:36:58Z</time>
      </trkpt>
      <trkpt lat="59.4888756" lon="17.8822557">
        <ele>2.2</ele>
        <time>2013-03-24T17:37:02Z</time>
      </trkpt>
      <trkpt lat="59.4889049" lon="17.8821914">
        <ele>2.2</ele>
        <time>2013-03-24T17:37:03Z</time>
      </trkpt>
      <trkpt lat="59.4890172" lon="17.8820106">
        <ele>3.2</ele>
        <time>2013-03-24T17:37:06Z</time>
      </trkpt>
      <trkpt lat="59.4891062" lon="17.8818892">
        <ele>3.2</ele>
        <time>2013-03-24T17:37:08Z</time>
      </trkpt>
      <trkpt lat="59.4892177" lon="17.8817936">
        <ele>3</ele>
        <time>2013-03-24T17:37:10Z</time>
      </trkpt>
      <trkpt lat="59.489385" lon="17.8816463">
        <ele>3</ele>
        <time>2013-03-24T17:37:13Z</time>
      </trkpt>
      <trkpt lat="59.4895532" lon="17.8815589">
        <ele>2.6</ele>
        <time>2013-03-24T17:37:16Z</time>
      </trkpt>
      <trkpt lat="59.4896092" lon="17.8815471">
        <ele>2.2</ele>
        <time>2013-03-24T17:37:17Z</time>
      </trkpt>
      <trkpt lat="59.489811" lon="17.8815247">
        <ele>0.8</ele>
        <time>2013-03-24T17:37:21Z</time>
      </trkpt>
      <trkpt lat="59.490005" lon="17.8815201">
        <ele>0</ele>
        <time>2013-03-24T17:37:25Z</time>
      </trkpt>
      <trkpt lat="59.4902271" lon="17.8815499">
        <ele>0</ele>
        <time>2013-03-24T17:37:29Z</time>
      </trkpt>
      <trkpt lat="59.4904319" lon="17.8815486">
        <ele>0</ele>
        <time>2013-03-24T17:37:33Z</time>
      </trkpt>
      <trkpt lat="59.4905821" lon="17.8815495">
        <ele>0</ele>
        <time>2013-03-24T17:37:36Z</time>
      </trkpt>
      <trkpt lat="59.4906344" lon="17.8815425">
        <ele>0</ele>
        <time>2013-03-24T17:37:37Z</time>
      </trkpt>
      <trkpt lat="59.4907447" lon="17.8815377">
        <ele>0</ele>
        <time>2013-03-24T17:37:39Z</time>
      </trkpt>
      <trkpt lat="59.4908556" lon="17.881547">
        <ele>0</ele>
        <time>2013-03-24T17:37:41Z</time>
      </trkpt>
      <trkpt lat="59.4909603" lon="17.8815558">
        <ele>0</ele>
        <time>2013-03-24T17:37:43Z</time>
      </trkpt>
      <trkpt lat="59.4910577" lon="17.8815629">
        <ele>0</ele>
        <time>2013-03-24T17:37:45Z</time>
      </trkpt>
      <trkpt lat="59.4912034" lon="17.8816002">
        <ele>0</ele>
        <time>2013-03-24T17:37:48Z</time>
      </trkpt>
      <trkpt lat="59.4912587" lon="17.8816204">
        <ele>0</ele>
        <time>2013-03-24T17:37:49Z</time>
      </trkpt>
      <trkpt lat="59.4913613" lon="17.8816505">
        <ele>0</ele>
        <time>2013-03-24T17:37:51Z</time>
      </trkpt>
      <trkpt lat="59.49146" lon="17.881709">
        <ele>0</ele>
        <time>2013-03-24T17:37:53Z</time>
      </trkpt>
      <trkpt lat="59.4916651" lon="17.8817821">
        <ele>0</ele>
        <time>2013-03-24T17:37:57Z</time>
      </trkpt>
      <trkpt lat="59.4918249" lon="17.8818607">
        <ele>0</ele>
        <time>2013-03-24T17:38:00Z</time>
      </trkpt>
      <trkpt lat="59.4918733" lon="17.8818757">
        <ele>0</ele>
        <time>2013-03-24T17:38:01Z</time>
      </trkpt>
      <trkpt lat="59.4919215" lon="17.8818945">
        <ele>0</ele>
        <time>2013-03-24T17:38:02Z</time>
      </trkpt>
      <trkpt lat="59.4920617" lon="17.8819438">
        <ele>0</ele>
        <time>2013-03-24T17:38:05Z</time>
      </trkpt>
      <trkpt lat="59.4922222" lon="17.8820366">
        <ele>0</ele>
        <time>2013-03-24T17:38:09Z</time>
      </trkpt>
      <trkpt lat="59.4922599" lon="17.8820491">
        <ele>0</ele>
        <time>2013-03-24T17:38:10Z</time>
      </trkpt>
      <trkpt lat="59.492302" lon="17.8820724">
        <ele>0</ele>
        <time>2013-03-24T17:38:11Z</time>
      </trkpt>
      <trkpt lat="59.4924567" lon="17.8821821">
        <ele>0</ele>
        <time>2013-03-24T17:38:14Z</time>
      </trkpt>
      <trkpt lat="59.4926723" lon="17.8823323">
        <ele>0</ele>
        <time>2013-03-24T17:38:18Z</time>
      </trkpt>
      <trkpt lat="59.4927206" lon="17.8823518">
        <ele>0</ele>
        <time>2013-03-24T17:38:19Z</time>
      </trkpt>
      <trkpt lat="59.4928895" lon="17.8823145">
        <ele>0</ele>
        <time>2013-03-24T17:38:23Z</time>
      </trkpt>
      <trkpt lat="59.4929697" lon="17.8820614">
        <ele>0.2</ele>
        <time>2013-03-24T17:38:27Z</time>
      </trkpt>
      <trkpt lat="59.4929778" lon="17.8819739">
        <ele>0.8</ele>
        <time>2013-03-24T17:38:28Z</time>
      </trkpt>
      <trkpt lat="59.4929832" lon="17.8818243">
        <ele>2.2</ele>
        <time>2013-03-24T17:38:30Z</time>
      </trkpt>
      <trkpt lat="59.4929708" lon="17.8816124">
        <ele>4.6</ele>
        <time>2013-03-24T17:38:33Z</time>
      </trkpt>
      <trkpt lat="59.4929417" lon="17.8812088">
        <ele>8.4</ele>
        <time>2013-03-24T17:38:39Z</time>
      </trkpt>
      <trkpt lat="59.4929732" lon="17.880781">
        <ele>13</ele>
        <time>2013-03-24T17:38:45Z</time>
      </trkpt>
      <trkpt lat="59.4931047" lon="17.880487">
        <ele>12.8</ele>
        <time>2013-03-24T17:38:49Z</time>
      </trkpt>
      <trkpt lat="59.4931416" lon="17.8804303">
        <ele>12.4</ele>
        <time>2013-03-24T17:38:50Z</time>
      </trkpt>
      <trkpt lat="59.4931872" lon="17.8802873">
        <ele>12.6</ele>
        <time>2013-03-24T17:38:52Z</time>
      </trkpt>
      <trkpt lat="59.4932029" lon="17.8801225">
        <ele>12.2</ele>
        <time>2013-03-24T17:38:54Z</time>
      </trkpt>
      <trkpt lat="59.4931472" lon="17.8797899">
        <ele>10.4</ele>
        <time>2013-03-24T17:38:58Z</time>
      </trkpt>
      <trkpt lat="59.4930914" lon="17.8796198">
        <ele>9.8</ele>
        <time>2013-03-24T17:39:00Z</time>
      </trkpt>
      <trkpt lat="59.4930203" lon="17.8794776">
        <ele>9.2</ele>
        <time>2013-03-24T17:39:02Z</time>
      </trkpt>
      <trkpt lat="59.4929842" lon="17.8794242">
        <ele>8.8</ele>
        <time>2013-03-24T17:39:03Z</time>
      </trkpt>
      <trkpt lat="59.4928465" lon="17.8792679">
        <ele>8.8</ele>
        <time>2013-03-24T17:39:07Z</time>
      </trkpt>
      <trkpt lat="59.4926805" lon="17.8791238">
        <ele>8</ele>
        <time>2013-03-24T17:39:11Z</time>
      </trkpt>
      <trkpt lat="59.4926349" lon="17.8790959">
        <ele>8.4</ele>
        <time>2013-03-24T17:39:12Z</time>
      </trkpt>
      <trkpt lat="59.4924682" lon="17.8791032">
        <ele>8.8</ele>
        <time>2013-03-24T17:39:16Z</time>
      </trkpt>
      <trkpt lat="59.4923895" lon="17.8791187">
        <ele>8</ele>
        <time>2013-03-24T17:39:18Z</time>
      </trkpt>
      <trkpt lat="59.492307" lon="17.8791275">
        <ele>7.2</ele>
        <time>2013-03-24T17:39:20Z</time>
      </trkpt>
      <trkpt lat="59.4922588" lon="17.8791497">
        <ele>7.6</ele>
        <time>2013-03-24T17:39:21Z</time>
      </trkpt>
      <trkpt lat="59.4921647" lon="17.8791849">
        <ele>6.8</ele>
        <time>2013-03-24T17:39:23Z</time>
      </trkpt>
      <trkpt lat="59.4920704" lon="17.8791942">
        <ele>6.2</ele>
        <time>2013-03-24T17:39:25Z</time>
      </trkpt>
      <trkpt lat="59.4918757" lon="17.8792075">
        <ele>5.4</ele>
        <time>2013-03-24T17:39:29Z</time>
      </trkpt>
      <trkpt lat="59.4916944" lon="17.879164">
        <ele>5.6</ele>
        <time>2013-03-24T17:39:33Z</time>
      </trkpt>
      <trkpt lat="59.4915678" lon="17.8791482">
        <ele>5</ele>
        <time>2013-03-24T17:39:36Z</time>
      </trkpt>
      <trkpt lat="59.491489" lon="17.8791642">
        <ele>4.2</ele>
        <time>2013-03-24T17:39:38Z</time>
      </trkpt>
      <trkpt lat="59.4914508" lon="17.8791736">
        <ele>4</ele>
        <time>2013-03-24T17:39:39Z</time>
      </trkpt>
      <trkpt lat="59.4913685" lon="17.8792092">
        <ele>3.4</ele>
        <time>2013-03-24T17:39:41Z</time>
      </trkpt>
      <trkpt lat="59.4912868" lon="17.8792444">
        <ele>3.8</ele>
        <time>2013-03-24T17:39:43Z</time>
      </trkpt>
      <trkpt lat="59.4911538" lon="17.8792655">
        <ele>4.4</ele>
        <time>2013-03-24T17:39:46Z</time>
      </trkpt>
      <trkpt lat="59.4910613" lon="17.8792476">
        <ele>5</ele>
        <time>2013-03-24T17:39:48Z</time>
      </trkpt>
      <trkpt lat="59.4909549" lon="17.879246">
        <ele>5.4</ele>
        <time>2013-03-24T17:39:50Z</time>
      </trkpt>
      <trkpt lat="59.4908404" lon="17.8792502">
        <ele>6</ele>
        <time>2013-03-24T17:39:52Z</time>
      </trkpt>
      <trkpt lat="59.4906824" lon="17.879271">
        <ele>6.2</ele>
        <time>2013-03-24T17:39:55Z</time>
      </trkpt>
      <trkpt lat="59.4906293" lon="17.8792772">
        <ele>6.6</ele>
        <time>2013-03-24T17:39:56Z</time>
      </trkpt>
      <trkpt lat="59.4904131" lon="17.8792862">
        <ele>6.4</ele>
        <time>2013-03-24T17:40:00Z</time>
      </trkpt>
      <trkpt lat="59.4902143" lon="17.8792427">
        <ele>6.8</ele>
        <time>2013-03-24T17:40:04Z</time>
      </trkpt>
      <trkpt lat="59.4901658" lon="17.8792391">
        <ele>6.6</ele>
        <time>2013-03-24T17:40:05Z</time>
      </trkpt>
      <trkpt lat="59.4900106" lon="17.8792375">
        <ele>7.2</ele>
        <time>2013-03-24T17:40:08Z</time>
      </trkpt>
      <trkpt lat="59.4899604" lon="17.8792446">
        <ele>7</ele>
        <time>2013-03-24T17:40:09Z</time>
      </trkpt>
      <trkpt lat="59.4898128" lon="17.8792662">
        <ele>7.4</ele>
        <time>2013-03-24T17:40:12Z</time>
      </trkpt>
      <trkpt lat="59.4897673" lon="17.8792823">
        <ele>7.4</ele>
        <time>2013-03-24T17:40:13Z</time>
      </trkpt>
      <trkpt lat="59.4896078" lon="17.8792912">
        <ele>7.4</ele>
        <time>2013-03-24T17:40:17Z</time>
      </trkpt>
      <trkpt lat="59.4894905" lon="17.8792895">
        <ele>8</ele>
        <time>2013-03-24T17:40:20Z</time>
      </trkpt>
      <trkpt lat="59.4894213" lon="17.8792978">
        <ele>8.2</ele>
        <time>2013-03-24T17:40:22Z</time>
      </trkpt>
      <trkpt lat="59.4892387" lon="17.8792831">
        <ele>8.8</ele>
        <time>2013-03-24T17:40:27Z</time>
      </trkpt>
      <trkpt lat="59.4890157" lon="17.8792762">
        <ele>11</ele>
        <time>2013-03-24T17:40:33Z</time>
      </trkpt>
      <trkpt lat="59.488813" lon="17.8792283">
        <ele>12.2</ele>
        <time>2013-03-24T17:40:38Z</time>
      </trkpt>
      <trkpt lat="59.4887395" lon="17.8792275">
        <ele>11.2</ele>
        <time>2013-03-24T17:40:40Z</time>
      </trkpt>
      <trkpt lat="59.4886267" lon="17.8791802">
        <ele>9</ele>
        <time>2013-03-24T17:40:43Z</time>
      </trkpt>
      <trkpt lat="59.4885013" lon="17.879157">
        <ele>10</ele>
        <time>2013-03-24T17:40:46Z</time>
      </trkpt>
      <trkpt lat="59.4884194" lon="17.8791688">
        <ele>9.8</ele>
        <time>2013-03-24T17:40:48Z</time>
      </trkpt>
      <trkpt lat="59.4882111" lon="17.8792845">
        <ele>9.6</ele>
        <time>2013-03-24T17:40:53Z</time>
      </trkpt>
      <trkpt lat="59.4881733" lon="17.8793315">
        <ele>9.6</ele>
        <time>2013-03-24T17:40:54Z</time>
      </trkpt>
      <trkpt lat="59.4880697" lon="17.8795169">
        <ele>7.4</ele>
        <time>2013-03-24T17:40:57Z</time>
      </trkpt>
      <trkpt lat="59.4879953" lon="17.8796719">
        <ele>6.6</ele>
        <time>2013-03-24T17:40:59Z</time>
      </trkpt>
      <trkpt lat="59.4879257" lon="17.8798374">
        <ele>6</ele>
        <time>2013-03-24T17:41:01Z</time>
      </trkpt>
      <trkpt lat="59.4878998" lon="17.8799179">
        <ele>5.6</ele>
        <time>2013-03-24T17:41:02Z</time>
      </trkpt>
      <trkpt lat="59.4878383" lon="17.8802101">
        <ele>4.8</ele>
        <time>2013-03-24T17:41:05Z</time>
      </trkpt>
      <trkpt lat="59.4877697" lon="17.8805689">
        <ele>3.6</ele>
        <time>2013-03-24T17:41:09Z</time>
      </trkpt>
      <trkpt lat="59.4877481" lon="17.8807331">
        <ele>2.8</ele>
        <time>2013-03-24T17:41:11Z</time>
      </trkpt>
      <trkpt lat="59.4877058" lon="17.8809808">
        <ele>2.8</ele>
        <time>2013-03-24T17:41:14Z</time>
      </trkpt>
      <trkpt lat="59.4876818" lon="17.8811423">
        <ele>2.8</ele>
        <time>2013-03-24T17:41:16Z</time>
      </trkpt>
      <trkpt lat="59.4876455" lon="17.8812931">
        <ele>3.8</ele>
        <time>2013-03-24T17:41:18Z</time>
      </trkpt>
      <trkpt lat="59.4876171" lon="17.8813445">
        <ele>4.6</ele>
        <time>2013-03-24T17:41:19Z</time>
      </trkpt>
      <trkpt lat="59.4874993" lon="17.8814267">
        <ele>4.8</ele>
        <time>2013-03-24T17:41:22Z</time>
      </trkpt>
      <trkpt lat="59.4874477" lon="17.8814516">
        <ele>5.2</ele>
        <time>2013-03-24T17:41:23Z</time>
      </trkpt>
      <trkpt lat="59.4873974" lon="17.8814758">
        <ele>5</ele>
        <time>2013-03-24T17:41:24Z</time>
      </trkpt>
      <trkpt lat="59.4872282" lon="17.881478">
        <ele>5.4</ele>
        <time>2013-03-24T17:41:27Z</time>
      </trkpt>
      <trkpt lat="59.4871721" lon="17.881458">
        <ele>5.2</ele>
        <time>2013-03-24T17:41:28Z</time>
      </trkpt>
      <trkpt lat="59.4870264" lon="17.8813567">
        <ele>5.6</ele>
        <time>2013-03-24T17:41:31Z</time>
      </trkpt>
      <trkpt lat="59.486856" lon="17.8811988">
        <ele>5.6</ele>
        <time>2013-03-24T17:41:35Z</time>
      </trkpt>
      <trkpt lat="59.4867757" lon="17.8811338">
        <ele>6.6</ele>
        <time>2013-03-24T17:41:37Z</time>
      </trkpt>
      <trkpt lat="59.4866442" lon="17.8810985">
        <ele>6.6</ele>
        <time>2013-03-24T17:41:40Z</time>
      </trkpt>
      <trkpt lat="59.4865689" lon="17.881105">
        <ele>7.2</ele>
        <time>2013-03-24T17:41:42Z</time>
      </trkpt>
      <trkpt lat="59.486463" lon="17.8810822">
        <ele>8.8</ele>
        <time>2013-03-24T17:41:45Z</time>
      </trkpt>
      <trkpt lat="59.4863389" lon="17.8810704">
        <ele>8.8</ele>
        <time>2013-03-24T17:41:48Z</time>
      </trkpt>
      <trkpt lat="59.4862552" lon="17.8810507">
        <ele>9</ele>
        <time>2013-03-24T17:41:50Z</time>
      </trkpt>
      <trkpt lat="59.4860465" lon="17.8810133">
        <ele>10.6</ele>
        <time>2013-03-24T17:41:55Z</time>
      </trkpt>
      <trkpt lat="59.4859116" lon="17.8810167">
        <ele>12</ele>
        <time>2013-03-24T17:41:58Z</time>
      </trkpt>
      <trkpt lat="59.4858652" lon="17.881049">
        <ele>12.2</ele>
        <time>2013-03-24T17:41:59Z</time>
      </trkpt>
      <trkpt lat="59.4857267" lon="17.8812744">
        <ele>12.2</ele>
        <time>2013-03-24T17:42:03Z</time>
      </trkpt>
      <trkpt lat="59.4856419" lon="17.8815541">
        <ele>11.2</ele>
        <time>2013-03-24T17:42:06Z</time>
      </trkpt>
      <trkpt lat="59.4856272" lon="17.8816449">
        <ele>10.4</ele>
        <time>2013-03-24T17:42:07Z</time>
      </trkpt>
      <trkpt lat="59.4856594" lon="17.8820376">
        <ele>7.2</ele>
        <time>2013-03-24T17:42:11Z</time>
      </trkpt>
      <trkpt lat="59.4856772" lon="17.8824466">
        <ele>5.6</ele>
        <time>2013-03-24T17:42:15Z</time>
      </trkpt>
      <trkpt lat="59.4856652" lon="17.882857">
        <ele>3.8</ele>
        <time>2013-03-24T17:42:19Z</time>
      </trkpt>
      <trkpt lat="59.4856719" lon="17.8829487">
        <ele>3.8</ele>
        <time>2013-03-24T17:42:20Z</time>
      </trkpt>
      <trkpt lat="59.4856828" lon="17.8830473">
        <ele>3.4</ele>
        <time>2013-03-24T17:42:21Z</time>
      </trkpt>
      <trkpt lat="59.4857215" lon="17.883287">
        <ele>2.6</ele>
        <time>2013-03-24T17:42:23Z</time>
      </trkpt>
      <trkpt lat="59.4857884" lon="17.8836476">
        <ele>2.2</ele>
        <time>2013-03-24T17:42:26Z</time>
      </trkpt>
      <trkpt lat="59.4858171" lon="17.8837657">
        <ele>2.8</ele>
        <time>2013-03-24T17:42:27Z</time>
      </trkpt>
      <trkpt lat="59.4858644" lon="17.8839831">
        <ele>2.8</ele>
        <time>2013-03-24T17:42:29Z</time>
      </trkpt>
      <trkpt lat="59.4857301" lon="17.8843308">
        <ele>0</ele>
        <time>2013-03-24T17:42:33Z</time>
      </trkpt>
      <trkpt lat="59.4855156" lon="17.8844391">
        <ele>1.2</ele>
        <time>2013-03-24T17:42:36Z</time>
      </trkpt>
      <trkpt lat="59.4853073" lon="17.8845072">
        <ele>1.8</ele>
        <time>2013-03-24T17:42:39Z</time>
      </trkpt>
      <trkpt lat="59.4852429" lon="17.8845256">
        <ele>1.8</ele>
        <time>2013-03-24T17:42:40Z</time>
      </trkpt>
      <trkpt lat="59.4851126" lon="17.8845546">
        <ele>1.2</ele>
        <time>2013-03-24T17:42:42Z</time>
      </trkpt>
      <trkpt lat="59.484926" lon="17.884606">
        <ele>0.6</ele>
        <time>2013-03-24T17:42:45Z</time>
      </trkpt>
      <trkpt lat="59.4848068" lon="17.8846215">
        <ele>1.2</ele>
        <time>2013-03-24T17:42:47Z</time>
      </trkpt>
      <trkpt lat="59.4847053" lon="17.8846192">
        <ele>2.6</ele>
        <time>2013-03-24T17:42:49Z</time>
      </trkpt>
      <trkpt lat="59.4845195" lon="17.8846546">
        <ele>4</ele>
        <time>2013-03-24T17:42:53Z</time>
      </trkpt>
      <trkpt lat="59.4844204" lon="17.884668">
        <ele>3.6</ele>
        <time>2013-03-24T17:42:55Z</time>
      </trkpt>
      <trkpt lat="59.484328" lon="17.8846792">
        <ele>3.4</ele>
        <time>2013-03-24T17:42:57Z</time>
      </trkpt>
      <trkpt lat="59.4841318" lon="17.8846738">
        <ele>4.4</ele>
        <time>2013-03-24T17:43:01Z</time>
      </trkpt>
      <trkpt lat="59.4840846" lon="17.8846596">
        <ele>4.2</ele>
        <time>2013-03-24T17:43:02Z</time>
      </trkpt>
      <trkpt lat="59.483988" lon="17.8846375">
        <ele>4.2</ele>
        <time>2013-03-24T17:43:04Z</time>
      </trkpt>
      <trkpt lat="59.4839351" lon="17.8846395">
        <ele>4.6</ele>
        <time>2013-03-24T17:43:05Z</time>
      </trkpt>
      <trkpt lat="59.4837362" lon="17.8847991">
        <ele>3.2</ele>
        <time>2013-03-24T17:43:09Z</time>
      </trkpt>
      <trkpt lat="59.4836925" lon="17.8848772">
        <ele>2.8</ele>
        <time>2013-03-24T17:43:10Z</time>
      </trkpt>
      <trkpt lat="59.4835718" lon="17.8851477">
        <ele>1.4</ele>
        <time>2013-03-24T17:43:13Z</time>
      </trkpt>
      <trkpt lat="59.4834238" lon="17.8854911">
        <ele>0.2</ele>
        <time>2013-03-24T17:43:16Z</time>
      </trkpt>
      <trkpt lat="59.4832932" lon="17.8858055">
        <ele>1.6</ele>
        <time>2013-03-24T17:43:19Z</time>
      </trkpt>
      <trkpt lat="59.4831892" lon="17.8860946">
        <ele>2.8</ele>
        <time>2013-03-24T17:43:22Z</time>
      </trkpt>
      <trkpt lat="59.4831574" lon="17.886192">
        <ele>2.6</ele>
        <time>2013-03-24T17:43:23Z</time>
      </trkpt>
      <trkpt lat="59.483044" lon="17.8864158">
        <ele>3.6</ele>
        <time>2013-03-24T17:43:26Z</time>
      </trkpt>
      <trkpt lat="59.4828499" lon="17.8862837">
        <ele>3.8</ele>
        <time>2013-03-24T17:43:30Z</time>
      </trkpt>
      <trkpt lat="59.4827157" lon="17.8859654">
        <ele>4.2</ele>
        <time>2013-03-24T17:43:34Z</time>
      </trkpt>
      <trkpt lat="59.4826981" lon="17.885876">
        <ele>4.6</ele>
        <time>2013-03-24T17:43:35Z</time>
      </trkpt>
      <trkpt lat="59.4826483" lon="17.8855533">
        <ele>3.6</ele>
        <time>2013-03-24T17:43:39Z</time>
      </trkpt>
      <trkpt lat="59.4826152" lon="17.8853466">
        <ele>3</ele>
        <time>2013-03-24T17:43:42Z</time>
      </trkpt>
      <trkpt lat="59.4826258" lon="17.885147">
        <ele>3.2</ele>
        <time>2013-03-24T17:43:45Z</time>
      </trkpt>
      <trkpt lat="59.4826544" lon="17.8849797">
        <ele>3</ele>
        <time>2013-03-24T17:43:47Z</time>
      </trkpt>
      <trkpt lat="59.4826766" lon="17.8848116">
        <ele>3.6</ele>
        <time>2013-03-24T17:43:49Z</time>
      </trkpt>
      <trkpt lat="59.482681" lon="17.8847178">
        <ele>3.8</ele>
        <time>2013-03-24T17:43:50Z</time>
      </trkpt>
      <trkpt lat="59.4826835" lon="17.8844813">
        <ele>5</ele>
        <time>2013-03-24T17:43:53Z</time>
      </trkpt>
      <trkpt lat="59.4826854" lon="17.8843386">
        <ele>6.2</ele>
        <time>2013-03-24T17:43:55Z</time>
      </trkpt>
      <trkpt lat="59.482711" lon="17.8839552">
        <ele>9</ele>
        <time>2013-03-24T17:44:01Z</time>
      </trkpt>
      <trkpt lat="59.4827852" lon="17.8835776">
        <ele>11.2</ele>
        <time>2013-03-24T17:44:08Z</time>
      </trkpt>
      <trkpt lat="59.4828078" lon="17.8831927">
        <ele>10.8</ele>
        <time>2013-03-24T17:44:13Z</time>
      </trkpt>
      <trkpt lat="59.4828053" lon="17.8828145">
        <ele>11.4</ele>
        <time>2013-03-24T17:44:20Z</time>
      </trkpt>
      <trkpt lat="59.4828701" lon="17.8824274">
        <ele>12.2</ele>
        <time>2013-03-24T17:44:28Z</time>
      </trkpt>
      <trkpt lat="59.4829115" lon="17.8820784">
        <ele>12.4</ele>
        <time>2013-03-24T17:44:34Z</time>
      </trkpt>
      <trkpt lat="59.4829591" lon="17.8816957">
        <ele>12.8</ele>
        <time>2013-03-24T17:44:40Z</time>
      </trkpt>
      <trkpt lat="59.4830369" lon="17.8813554">
        <ele>13.8</ele>
        <time>2013-03-24T17:44:44Z</time>
      </trkpt>
      <trkpt lat="59.4831176" lon="17.881013">
        <ele>14</ele>
        <time>2013-03-24T17:44:48Z</time>
      </trkpt>
      <trkpt lat="59.483182" lon="17.8806799">
        <ele>14</ele>
        <time>2013-03-24T17:44:52Z</time>
      </trkpt>
      <trkpt lat="59.4831974" lon="17.8806037">
        <ele>13.6</ele>
        <time>2013-03-24T17:44:53Z</time>
      </trkpt>
      <trkpt lat="59.4832257" lon="17.8803569">
        <ele>13.4</ele>
        <time>2013-03-24T17:44:56Z</time>
      </trkpt>
      <trkpt lat="59.4832351" lon="17.8802701">
        <ele>13</ele>
        <time>2013-03-24T17:44:57Z</time>
      </trkpt>
      <trkpt lat="59.4832509" lon="17.8801064">
        <ele>14</ele>
        <time>2013-03-24T17:44:59Z</time>
      </trkpt>
      <trkpt lat="59.4832683" lon="17.8798819">
        <ele>14.8</ele>
        <time>2013-03-24T17:45:02Z</time>
      </trkpt>
      <trkpt lat="59.4832642" lon="17.8794611">
        <ele>16.6</ele>
        <time>2013-03-24T17:45:08Z</time>
      </trkpt>
      <trkpt lat="59.4832433" lon="17.879087">
        <ele>15.6</ele>
        <time>2013-03-24T17:45:12Z</time>
      </trkpt>
      <trkpt lat="59.4832467" lon="17.8789875">
        <ele>15.6</ele>
        <time>2013-03-24T17:45:13Z</time>
      </trkpt>
      <trkpt lat="59.4833181" lon="17.8787185">
        <ele>14.4</ele>
        <time>2013-03-24T17:45:16Z</time>
      </trkpt>
      <trkpt lat="59.4833946" lon="17.8785596">
        <ele>14</ele>
        <time>2013-03-24T17:45:18Z</time>
      </trkpt>
      <trkpt lat="59.4834709" lon="17.8784165">
        <ele>13.4</ele>
        <time>2013-03-24T17:45:20Z</time>
      </trkpt>
      <trkpt lat="59.4836284" lon="17.8781021">
        <ele>14</ele>
        <time>2013-03-24T17:45:24Z</time>
      </trkpt>
      <trkpt lat="59.4837039" lon="17.8779487">
        <ele>13.8</ele>
        <time>2013-03-24T17:45:26Z</time>
      </trkpt>
      <trkpt lat="59.483759" lon="17.8777795">
        <ele>13.6</ele>
        <time>2013-03-24T17:45:28Z</time>
      </trkpt>
      <trkpt lat="59.4836869" lon="17.87745">
        <ele>14</ele>
        <time>2013-03-24T17:45:32Z</time>
      </trkpt>
      <trkpt lat="59.4834672" lon="17.8774163">
        <ele>14.8</ele>
        <time>2013-03-24T17:45:37Z</time>
      </trkpt>
      <trkpt lat="59.483422" lon="17.8774262">
        <ele>14.6</ele>
        <time>2013-03-24T17:45:38Z</time>
      </trkpt>
      <trkpt lat="59.4832876" lon="17.8774629">
        <ele>15.6</ele>
        <time>2013-03-24T17:45:41Z</time>
      </trkpt>
      <trkpt lat="59.4832506" lon="17.8774642">
        <ele>16.2</ele>
        <time>2013-03-24T17:45:42Z</time>
      </trkpt>
      <trkpt lat="59.4831804" lon="17.8774809">
        <ele>16.2</ele>
        <time>2013-03-24T17:45:44Z</time>
      </trkpt>
      <trkpt lat="59.4830659" lon="17.877495">
        <ele>16.6</ele>
        <time>2013-03-24T17:45:48Z</time>
      </trkpt>
      <trkpt lat="59.4828644" lon="17.8776187">
        <ele>16.8</ele>
        <time>2013-03-24T17:45:54Z</time>
      </trkpt>
      <trkpt lat="59.4827343" lon="17.8779068">
        <ele>15</ele>
        <time>2013-03-24T17:45:59Z</time>
      </trkpt>
      <trkpt lat="59.4827647" lon="17.8782893">
        <ele>13</ele>
        <time>2013-03-24T17:46:04Z</time>
      </trkpt>
      <trkpt lat="59.4828553" lon="17.8786336">
        <ele>12</ele>
        <time>2013-03-24T17:46:09Z</time>
      </trkpt>
      <trkpt lat="59.4829239" lon="17.8790232">
        <ele>13.8</ele>
        <time>2013-03-24T17:46:15Z</time>
      </trkpt>
      <trkpt lat="59.4829796" lon="17.8794051">
        <ele>15.4</ele>
        <time>2013-03-24T17:46:20Z</time>
      </trkpt>
      <trkpt lat="59.4830002" lon="17.87979">
        <ele>15.8</ele>
        <time>2013-03-24T17:46:25Z</time>
      </trkpt>
      <trkpt lat="59.482944" lon="17.8801384">
        <ele>16</ele>
        <time>2013-03-24T17:46:30Z</time>
      </trkpt>
      <trkpt lat="59.4828732" lon="17.8805246">
        <ele>17.8</ele>
        <time>2013-03-24T17:46:35Z</time>
      </trkpt>
      <trkpt lat="59.4828317" lon="17.8807747">
        <ele>17.6</ele>
        <time>2013-03-24T17:46:38Z</time>
      </trkpt>
      <trkpt lat="59.4828188" lon="17.8808652">
        <ele>17.6</ele>
        <time>2013-03-24T17:46:39Z</time>
      </trkpt>
      <trkpt lat="59.4827701" lon="17.8812322">
        <ele>17.2</ele>
        <time>2013-03-24T17:46:43Z</time>
      </trkpt>
      <trkpt lat="59.4827645" lon="17.8813258">
        <ele>17</ele>
        <time>2013-03-24T17:46:44Z</time>
      </trkpt>
      <trkpt lat="59.4827571" lon="17.8814207">
        <ele>17</ele>
        <time>2013-03-24T17:46:45Z</time>
      </trkpt>
      <trkpt lat="59.4827587" lon="17.8816034">
        <ele>17.2</ele>
        <time>2013-03-24T17:46:47Z</time>
      </trkpt>
      <trkpt lat="59.482766" lon="17.8816983">
        <ele>17.2</ele>
        <time>2013-03-24T17:46:48Z</time>
      </trkpt>
      <trkpt lat="59.4827852" lon="17.8819626">
        <ele>16.4</ele>
        <time>2013-03-24T17:46:51Z</time>
      </trkpt>
      <trkpt lat="59.482771" lon="17.8823556">
        <ele>14.6</ele>
        <time>2013-03-24T17:46:55Z</time>
      </trkpt>
      <trkpt lat="59.4827619" lon="17.8824549">
        <ele>14.6</ele>
        <time>2013-03-24T17:46:56Z</time>
      </trkpt>
      <trkpt lat="59.4827374" lon="17.8827571">
        <ele>14.6</ele>
        <time>2013-03-24T17:46:59Z</time>
      </trkpt>
      <trkpt lat="59.4827209" lon="17.8828788">
        <ele>15</ele>
        <time>2013-03-24T17:47:00Z</time>
      </trkpt>
      <trkpt lat="59.4826846" lon="17.8831361">
        <ele>15.2</ele>
        <time>2013-03-24T17:47:02Z</time>
      </trkpt>
      <trkpt lat="59.4826196" lon="17.8835453">
        <ele>16.2</ele>
        <time>2013-03-24T17:47:05Z</time>
      </trkpt>
      <trkpt lat="59.4825359" lon="17.8839569">
        <ele>17</ele>
        <time>2013-03-24T17:47:08Z</time>
      </trkpt>
      <trkpt lat="59.4823648" lon="17.8843101">
        <ele>15.8</ele>
        <time>2013-03-24T17:47:11Z</time>
      </trkpt>
      <trkpt lat="59.4821826" lon="17.8846639">
        <ele>16.2</ele>
        <time>2013-03-24T17:47:14Z</time>
      </trkpt>
      <trkpt lat="59.4820728" lon="17.8850683">
        <ele>16.4</ele>
        <time>2013-03-24T17:47:17Z</time>
      </trkpt>
      <trkpt lat="59.4820494" lon="17.8852046">
        <ele>16.4</ele>
        <time>2013-03-24T17:47:18Z</time>
      </trkpt>
      <trkpt lat="59.4820183" lon="17.8854558">
        <ele>16.2</ele>
        <time>2013-03-24T17:47:20Z</time>
      </trkpt>
      <trkpt lat="59.4820095" lon="17.8855656">
        <ele>15.4</ele>
        <time>2013-03-24T17:47:21Z</time>
      </trkpt>
      <trkpt lat="59.4820104" lon="17.8858547">
        <ele>14.8</ele>
        <time>2013-03-24T17:47:24Z</time>
      </trkpt>
      <trkpt lat="59.4819291" lon="17.8861801">
        <ele>12.6</ele>
        <time>2013-03-24T17:47:28Z</time>
      </trkpt>
      <trkpt lat="59.4818397" lon="17.8863179">
        <ele>10.4</ele>
        <time>2013-03-24T17:47:30Z</time>
      </trkpt>
      <trkpt lat="59.4817413" lon="17.8864421">
        <ele>8.4</ele>
        <time>2013-03-24T17:47:32Z</time>
      </trkpt>
      <trkpt lat="59.4815386" lon="17.886654">
        <ele>6</ele>
        <time>2013-03-24T17:47:36Z</time>
      </trkpt>
      <trkpt lat="59.4814097" lon="17.886768">
        <ele>6</ele>
        <time>2013-03-24T17:47:39Z</time>
      </trkpt>
      <trkpt lat="59.4813682" lon="17.8868051">
        <ele>5.6</ele>
        <time>2013-03-24T17:47:40Z</time>
      </trkpt>
      <trkpt lat="59.4812548" lon="17.8868867">
        <ele>6</ele>
        <time>2013-03-24T17:47:43Z</time>
      </trkpt>
      <trkpt lat="59.4811772" lon="17.8869411">
        <ele>6</ele>
        <time>2013-03-24T17:47:45Z</time>
      </trkpt>
      <trkpt lat="59.4811008" lon="17.8870004">
        <ele>6.2</ele>
        <time>2013-03-24T17:47:47Z</time>
      </trkpt>
      <trkpt lat="59.4809879" lon="17.8870556">
        <ele>6.4</ele>
        <time>2013-03-24T17:47:50Z</time>
      </trkpt>
      <trkpt lat="59.4807921" lon="17.8869632">
        <ele>6.4</ele>
        <time>2013-03-24T17:47:56Z</time>
      </trkpt>
      <trkpt lat="59.480684" lon="17.8866028">
        <ele>4</ele>
        <time>2013-03-24T17:48:02Z</time>
      </trkpt>
      <trkpt lat="59.4806503" lon="17.8862236">
        <ele>4</ele>
        <time>2013-03-24T17:48:07Z</time>
      </trkpt>
      <trkpt lat="59.4806425" lon="17.885818">
        <ele>3.8</ele>
        <time>2013-03-24T17:48:12Z</time>
      </trkpt>
      <trkpt lat="59.4806405" lon="17.8856517">
        <ele>3.6</ele>
        <time>2013-03-24T17:48:14Z</time>
      </trkpt>
      <trkpt lat="59.4806633" lon="17.8853969">
        <ele>4</ele>
        <time>2013-03-24T17:48:17Z</time>
      </trkpt>
      <trkpt lat="59.4806821" lon="17.8852247">
        <ele>4.2</ele>
        <time>2013-03-24T17:48:19Z</time>
      </trkpt>
      <trkpt lat="59.4806887" lon="17.8849778">
        <ele>4</ele>
        <time>2013-03-24T17:48:22Z</time>
      </trkpt>
      <trkpt lat="59.4806478" lon="17.8846844">
        <ele>4.4</ele>
        <time>2013-03-24T17:48:26Z</time>
      </trkpt>
      <trkpt lat="59.4806292" lon="17.8846224">
        <ele>4.8</ele>
        <time>2013-03-24T17:48:27Z</time>
      </trkpt>
      <trkpt lat="59.4805284" lon="17.8842919">
        <ele>8.2</ele>
        <time>2013-03-24T17:48:33Z</time>
      </trkpt>
      <trkpt lat="59.4803882" lon="17.8839832">
        <ele>12.8</ele>
        <time>2013-03-24T17:48:39Z</time>
      </trkpt>
      <trkpt lat="59.4802301" lon="17.8837297">
        <ele>18.4</ele>
        <time>2013-03-24T17:48:45Z</time>
      </trkpt>
      <trkpt lat="59.4800908" lon="17.8834901">
        <ele>21.2</ele>
        <time>2013-03-24T17:48:51Z</time>
      </trkpt>
      <trkpt lat="59.4798977" lon="17.8834184">
        <ele>21.6</ele>
        <time>2013-03-24T17:48:58Z</time>
      </trkpt>
      <trkpt lat="59.4796911" lon="17.8833992">
        <ele>18.2</ele>
        <time>2013-03-24T17:49:03Z</time>
      </trkpt>
      <trkpt lat="59.4794926" lon="17.8833518">
        <ele>17.2</ele>
        <time>2013-03-24T17:49:08Z</time>
      </trkpt>
      <trkpt lat="59.4794149" lon="17.8833507">
        <ele>16.4</ele>
        <time>2013-03-24T17:49:10Z</time>
      </trkpt>
      <trkpt lat="59.4793372" lon="17.8833404">
        <ele>15.4</ele>
        <time>2013-03-24T17:49:12Z</time>
      </trkpt>
      <trkpt lat="59.4792946" lon="17.8833316">
        <ele>15.2</ele>
        <time>2013-03-24T17:49:13Z</time>
      </trkpt>
      <trkpt lat="59.4790777" lon="17.8833155">
        <ele>12.6</ele>
        <time>2013-03-24T17:49:19Z</time>
      </trkpt>
      <trkpt lat="59.4788813" lon="17.8832807">
        <ele>10.2</ele>
        <time>2013-03-24T17:49:25Z</time>
      </trkpt>
      <trkpt lat="59.478684" lon="17.8831876">
        <ele>10.4</ele>
        <time>2013-03-24T17:49:31Z</time>
      </trkpt>
      <trkpt lat="59.4785192" lon="17.8831043">
        <ele>9.6</ele>
        <time>2013-03-24T17:49:36Z</time>
      </trkpt>
      <trkpt lat="59.4784875" lon="17.8830853">
        <ele>9</ele>
        <time>2013-03-24T17:49:37Z</time>
      </trkpt>
      <trkpt lat="59.4782979" lon="17.8829612">
        <ele>11.2</ele>
        <time>2013-03-24T17:49:43Z</time>
      </trkpt>
      <trkpt lat="59.4781654" lon="17.8826975">
        <ele>11</ele>
        <time>2013-03-24T17:49:49Z</time>
      </trkpt>
      <trkpt lat="59.4781188" lon="17.8823363">
        <ele>11.4</ele>
        <time>2013-03-24T17:49:56Z</time>
      </trkpt>
      <trkpt lat="59.4780966" lon="17.8819397">
        <ele>13.6</ele>
        <time>2013-03-24T17:50:04Z</time>
      </trkpt>
      <trkpt lat="59.4780189" lon="17.8816264">
        <ele>16.2</ele>
        <time>2013-03-24T17:50:11Z</time>
      </trkpt>
      <trkpt lat="59.4778504" lon="17.8814729">
        <ele>19.4</ele>
        <time>2013-03-24T17:50:18Z</time>
      </trkpt>
      <trkpt lat="59.4776792" lon="17.8816711">
        <ele>18</ele>
        <time>2013-03-24T17:50:25Z</time>
      </trkpt>
      <trkpt lat="59.4776783" lon="17.8820422">
        <ele>16.4</ele>
        <time>2013-03-24T17:50:29Z</time>
      </trkpt>
      <trkpt lat="59.477737" lon="17.8822002">
        <ele>15.6</ele>
        <time>2013-03-24T17:50:31Z</time>
      </trkpt>
      <trkpt lat="59.4778105" lon="17.8823441">
        <ele>15</ele>
        <time>2013-03-24T17:50:33Z</time>
      </trkpt>
      <trkpt lat="59.4778498" lon="17.8824069">
        <ele>14.8</ele>
        <time>2013-03-24T17:50:34Z</time>
      </trkpt>
      <trkpt lat="59.477972" lon="17.8826225">
        <ele>13.2</ele>
        <time>2013-03-24T17:50:37Z</time>
      </trkpt>
      <trkpt lat="59.4781209" lon="17.882915">
        <ele>10</ele>
        <time>2013-03-24T17:50:41Z</time>
      </trkpt>
      <trkpt lat="59.478229" lon="17.8832755">
        <ele>7.2</ele>
        <time>2013-03-24T17:50:45Z</time>
      </trkpt>
      <trkpt lat="59.4782214" lon="17.8836947">
        <ele>7.4</ele>
        <time>2013-03-24T17:50:49Z</time>
      </trkpt>
      <trkpt lat="59.4782079" lon="17.884093">
        <ele>6.6</ele>
        <time>2013-03-24T17:50:53Z</time>
      </trkpt>
      <trkpt lat="59.478196" lon="17.884536">
        <ele>5.6</ele>
        <time>2013-03-24T17:50:57Z</time>
      </trkpt>
      <trkpt lat="59.4781876" lon="17.8846458">
        <ele>5.4</ele>
        <time>2013-03-24T17:50:58Z</time>
      </trkpt>
      <trkpt lat="59.4781257" lon="17.8849358">
        <ele>5.6</ele>
        <time>2013-03-24T17:51:01Z</time>
      </trkpt>
      <trkpt lat="59.4779387" lon="17.8850426">
        <ele>5.8</ele>
        <time>2013-03-24T17:51:05Z</time>
      </trkpt>
      <trkpt lat="59.4778925" lon="17.8850238">
        <ele>6.2</ele>
        <time>2013-03-24T17:51:06Z</time>
      </trkpt>
      <trkpt lat="59.4777656" lon="17.8849307">
        <ele>6.8</ele>
        <time>2013-03-24T17:51:09Z</time>
      </trkpt>
      <trkpt lat="59.4776042" lon="17.8849203">
        <ele>7.4</ele>
        <time>2013-03-24T17:51:13Z</time>
      </trkpt>
      <trkpt lat="59.477564" lon="17.8849415">
        <ele>6.8</ele>
        <time>2013-03-24T17:51:14Z</time>
      </trkpt>
      <trkpt lat="59.4774874" lon="17.8850012">
        <ele>6.2</ele>
        <time>2013-03-24T17:51:16Z</time>
      </trkpt>
      <trkpt lat="59.4773792" lon="17.8851221">
        <ele>5.4</ele>
        <time>2013-03-24T17:51:19Z</time>
      </trkpt>
      <trkpt lat="59.4773419" lon="17.8851721">
        <ele>5.4</ele>
        <time>2013-03-24T17:51:20Z</time>
      </trkpt>
      <trkpt lat="59.4772796" lon="17.8852657">
        <ele>4.4</ele>
        <time>2013-03-24T17:51:22Z</time>
      </trkpt>
      <trkpt lat="59.4772047" lon="17.8853383">
        <ele>4.2</ele>
        <time>2013-03-24T17:51:24Z</time>
      </trkpt>
      <trkpt lat="59.4771362" lon="17.8853719">
        <ele>4</ele>
        <time>2013-03-24T17:51:26Z</time>
      </trkpt>
      <trkpt lat="59.4769959" lon="17.8853946">
        <ele>4</ele>
        <time>2013-03-24T17:51:30Z</time>
      </trkpt>
      <trkpt lat="59.4768197" lon="17.8854627">
        <ele>4.6</ele>
        <time>2013-03-24T17:51:35Z</time>
      </trkpt>
      <trkpt lat="59.476633" lon="17.8856314">
        <ele>6</ele>
        <time>2013-03-24T17:51:40Z</time>
      </trkpt>
      <trkpt lat="59.4765397" lon="17.8858054">
        <ele>6.8</ele>
        <time>2013-03-24T17:51:43Z</time>
      </trkpt>
      <trkpt lat="59.4764793" lon="17.8859324">
        <ele>7.2</ele>
        <time>2013-03-24T17:51:45Z</time>
      </trkpt>
      <trkpt lat="59.4763917" lon="17.8861379">
        <ele>7.8</ele>
        <time>2013-03-24T17:51:48Z</time>
      </trkpt>
      <trkpt lat="59.4763654" lon="17.8862056">
        <ele>7.8</ele>
        <time>2013-03-24T17:51:49Z</time>
      </trkpt>
      <trkpt lat="59.4763085" lon="17.8863396">
        <ele>8.6</ele>
        <time>2013-03-24T17:51:51Z</time>
      </trkpt>
      <trkpt lat="59.4762534" lon="17.8864811">
        <ele>9.6</ele>
        <time>2013-03-24T17:51:53Z</time>
      </trkpt>
      <trkpt lat="59.4761297" lon="17.8867525">
        <ele>10</ele>
        <time>2013-03-24T17:51:57Z</time>
      </trkpt>
      <trkpt lat="59.4760893" lon="17.8870975">
        <ele>10.8</ele>
        <time>2013-03-24T17:52:01Z</time>
      </trkpt>
      <trkpt lat="59.4760754" lon="17.8873934">
        <ele>10.8</ele>
        <time>2013-03-24T17:52:04Z</time>
      </trkpt>
      <trkpt lat="59.4760762" lon="17.8875005">
        <ele>10.6</ele>
        <time>2013-03-24T17:52:05Z</time>
      </trkpt>
      <trkpt lat="59.4760787" lon="17.8876104">
        <ele>10.4</ele>
        <time>2013-03-24T17:52:06Z</time>
      </trkpt>
      <trkpt lat="59.476126" lon="17.887916">
        <ele>9.4</ele>
        <time>2013-03-24T17:52:09Z</time>
      </trkpt>
      <trkpt lat="59.4761502" lon="17.8880066">
        <ele>9</ele>
        <time>2013-03-24T17:52:10Z</time>
      </trkpt>
      <trkpt lat="59.4762222" lon="17.8882595">
        <ele>7.8</ele>
        <time>2013-03-24T17:52:13Z</time>
      </trkpt>
      <trkpt lat="59.4763435" lon="17.8885772">
        <ele>6.2</ele>
        <time>2013-03-24T17:52:17Z</time>
      </trkpt>
      <trkpt lat="59.4765026" lon="17.8887373">
        <ele>5</ele>
        <time>2013-03-24T17:52:21Z</time>
      </trkpt>
      <trkpt lat="59.4765477" lon="17.8887556">
        <ele>4.4</ele>
        <time>2013-03-24T17:52:22Z</time>
      </trkpt>
      <trkpt lat="59.4766822" lon="17.8888234">
        <ele>2.8</ele>
        <time>2013-03-24T17:52:25Z</time>
      </trkpt>
      <trkpt lat="59.4768595" lon="17.8887686">
        <ele>1</ele>
        <time>2013-03-24T17:52:29Z</time>
      </trkpt>
      <trkpt lat="59.4769848" lon="17.8886256">
        <ele>0</ele>
        <time>2013-03-24T17:52:32Z</time>
      </trkpt>
      <trkpt lat="59.4770253" lon="17.888584">
        <ele>0</ele>
        <time>2013-03-24T17:52:33Z</time>
      </trkpt>
      <trkpt lat="59.4772007" lon="17.8883967">
        <ele>0</ele>
        <time>2013-03-24T17:52:38Z</time>
      </trkpt>
      <trkpt lat="59.4772708" lon="17.8883294">
        <ele>0</ele>
        <time>2013-03-24T17:52:40Z</time>
      </trkpt>
      <trkpt lat="59.4773407" lon="17.8882725">
        <ele>0</ele>
        <time>2013-03-24T17:52:42Z</time>
      </trkpt>
      <trkpt lat="59.4773715" lon="17.8882393">
        <ele>0</ele>
        <time>2013-03-24T17:52:43Z</time>
      </trkpt>
      <trkpt lat="59.4775584" lon="17.8880662">
        <ele>0</ele>
        <time>2013-03-24T17:52:49Z</time>
      </trkpt>
      <trkpt lat="59.47774" lon="17.8879054">
        <ele>0.2</ele>
        <time>2013-03-24T17:52:55Z</time>
      </trkpt>
      <trkpt lat="59.4779006" lon="17.8877409">
        <ele>3.2</ele>
        <time>2013-03-24T17:53:00Z</time>
      </trkpt>
      <trkpt lat="59.4780702" lon="17.8875052">
        <ele>4.4</ele>
        <time>2013-03-24T17:53:05Z</time>
      </trkpt>
      <trkpt lat="59.4782639" lon="17.8874294">
        <ele>8.2</ele>
        <time>2013-03-24T17:53:11Z</time>
      </trkpt>
      <trkpt lat="59.4784852" lon="17.8874947">
        <ele>9.6</ele>
        <time>2013-03-24T17:53:17Z</time>
      </trkpt>
      <trkpt lat="59.4785911" lon="17.8878144">
        <ele>8.6</ele>
        <time>2013-03-24T17:53:21Z</time>
      </trkpt>
      <trkpt lat="59.4785657" lon="17.8882086">
        <ele>8</ele>
        <time>2013-03-24T17:53:27Z</time>
      </trkpt>
      <trkpt lat="59.4785617" lon="17.8882786">
        <ele>8</ele>
        <time>2013-03-24T17:53:28Z</time>
      </trkpt>
      <trkpt lat="59.4785421" lon="17.8885749">
        <ele>8.6</ele>
        <time>2013-03-24T17:53:32Z</time>
      </trkpt>
      <trkpt lat="59.4784235" lon="17.8889047">
        <ele>10.2</ele>
        <time>2013-03-24T17:53:37Z</time>
      </trkpt>
      <trkpt lat="59.4782929" lon="17.8890861">
        <ele>10.4</ele>
        <time>2013-03-24T17:53:40Z</time>
      </trkpt>
      <trkpt lat="59.478239" lon="17.8891419">
        <ele>10</ele>
        <time>2013-03-24T17:53:41Z</time>
      </trkpt>
      <trkpt lat="59.4780705" lon="17.8893011">
        <ele>8.2</ele>
        <time>2013-03-24T17:53:44Z</time>
      </trkpt>
      <trkpt lat="59.4780073" lon="17.8893486">
        <ele>7.6</ele>
        <time>2013-03-24T17:53:45Z</time>
      </trkpt>
      <trkpt lat="59.4778877" lon="17.889428">
        <ele>6.4</ele>
        <time>2013-03-24T17:53:47Z</time>
      </trkpt>
      <trkpt lat="59.4776987" lon="17.8895394">
        <ele>4.8</ele>
        <time>2013-03-24T17:53:50Z</time>
      </trkpt>
      <trkpt lat="59.4774579" lon="17.8896606">
        <ele>3</ele>
        <time>2013-03-24T17:53:54Z</time>
      </trkpt>
      <trkpt lat="59.4772377" lon="17.8897823">
        <ele>1.8</ele>
        <time>2013-03-24T17:53:58Z</time>
      </trkpt>
      <trkpt lat="59.4771175" lon="17.8898194">
        <ele>0.6</ele>
        <time>2013-03-24T17:54:00Z</time>
      </trkpt>
      <trkpt lat="59.4770538" lon="17.8898068">
        <ele>0.2</ele>
        <time>2013-03-24T17:54:01Z</time>
      </trkpt>
      <trkpt lat="59.4768394" lon="17.8897067">
        <ele>0</ele>
        <time>2013-03-24T17:54:05Z</time>
      </trkpt>
      <trkpt lat="59.4767839" lon="17.8896802">
        <ele>0</ele>
        <time>2013-03-24T17:54:06Z</time>
      </trkpt>
      <trkpt lat="59.4766736" lon="17.8896326">
        <ele>0</ele>
        <time>2013-03-24T17:54:08Z</time>
      </trkpt>
      <trkpt lat="59.4766181" lon="17.8896337">
        <ele>0</ele>
        <time>2013-03-24T17:54:09Z</time>
      </trkpt>
      <trkpt lat="59.4764667" lon="17.88973">
        <ele>0</ele>
        <time>2013-03-24T17:54:12Z</time>
      </trkpt>
      <trkpt lat="59.4764134" lon="17.8897621">
        <ele>0</ele>
        <time>2013-03-24T17:54:13Z</time>
      </trkpt>
      <trkpt lat="59.4763637" lon="17.8897713">
        <ele>0</ele>
        <time>2013-03-24T17:54:14Z</time>
      </trkpt>
      <trkpt lat="59.4762717" lon="17.8897527">
        <ele>0</ele>
        <time>2013-03-24T17:54:16Z</time>
      </trkpt>
      <trkpt lat="59.4762313" lon="17.8897246">
        <ele>0</ele>
        <time>2013-03-24T17:54:17Z</time>
      </trkpt>
      <trkpt lat="59.4760882" lon="17.8894998">
        <ele>0</ele>
        <time>2013-03-24T17:54:21Z</time>
      </trkpt>
      <trkpt lat="59.4760256" lon="17.8893869">
        <ele>0</ele>
        <time>2013-03-24T17:54:23Z</time>
      </trkpt>
      <trkpt lat="59.4759943" lon="17.8893372">
        <ele>0.4</ele>
        <time>2013-03-24T17:54:24Z</time>
      </trkpt>
      <trkpt lat="59.4759357" lon="17.889252">
        <ele>1</ele>
        <time>2013-03-24T17:54:26Z</time>
      </trkpt>
      <trkpt lat="59.475866" lon="17.8891877">
        <ele>1.4</ele>
        <time>2013-03-24T17:54:28Z</time>
      </trkpt>
      <trkpt lat="59.4757363" lon="17.8892323">
        <ele>0.8</ele>
        <time>2013-03-24T17:54:31Z</time>
      </trkpt>
      <trkpt lat="59.4755964" lon="17.8894812">
        <ele>0.8</ele>
        <time>2013-03-24T17:54:35Z</time>
      </trkpt>
      <trkpt lat="59.4756851" lon="17.8898014">
        <ele>0</ele>
        <time>2013-03-24T17:54:39Z</time>
      </trkpt>
      <trkpt lat="59.475764" lon="17.8899341">
        <ele>0</ele>
        <time>2013-03-24T17:54:41Z</time>
      </trkpt>
      <trkpt lat="59.475804" lon="17.8900168">
        <ele>0</ele>
        <time>2013-03-24T17:54:42Z</time>
      </trkpt>
      <trkpt lat="59.4758391" lon="17.8901145">
        <ele>0</ele>
        <time>2013-03-24T17:54:43Z</time>
      </trkpt>
      <trkpt lat="59.4759199" lon="17.8904356">
        <ele>0</ele>
        <time>2013-03-24T17:54:46Z</time>
      </trkpt>
      <trkpt lat="59.4759782" lon="17.8907681">
        <ele>0</ele>
        <time>2013-03-24T17:54:49Z</time>
      </trkpt>
      <trkpt lat="59.4760297" lon="17.8910888">
        <ele>0</ele>
        <time>2013-03-24T17:54:52Z</time>
      </trkpt>
      <trkpt lat="59.4760454" lon="17.8911839">
        <ele>0</ele>
        <time>2013-03-24T17:54:53Z</time>
      </trkpt>
      <trkpt lat="59.4761484" lon="17.8914781">
        <ele>0.6</ele>
        <time>2013-03-24T17:54:57Z</time>
      </trkpt>
      <trkpt lat="59.4761871" lon="17.8915181">
        <ele>1</ele>
        <time>2013-03-24T17:54:58Z</time>
      </trkpt>
      <trkpt lat="59.4762302" lon="17.8915364">
        <ele>1</ele>
        <time>2013-03-24T17:54:59Z</time>
      </trkpt>
      <trkpt lat="59.476314" lon="17.8913668">
        <ele>1.2</ele>
        <time>2013-03-24T17:55:02Z</time>
      </trkpt>
      <trkpt lat="59.4762818" lon="17.8909914">
        <ele>0.8</ele>
        <time>2013-03-24T17:55:07Z</time>
      </trkpt>
      <trkpt lat="59.4762399" lon="17.8908344">
        <ele>0.6</ele>
        <time>2013-03-24T17:55:09Z</time>
      </trkpt>
      <trkpt lat="59.4762238" lon="17.890757">
        <ele>0.6</ele>
        <time>2013-03-24T17:55:10Z</time>
      </trkpt>
      <trkpt lat="59.4762058" lon="17.8905909">
        <ele>1.2</ele>
        <time>2013-03-24T17:55:12Z</time>
      </trkpt>
      <trkpt lat="59.4762697" lon="17.8902381">
        <ele>1.8</ele>
        <time>2013-03-24T17:55:17Z</time>
      </trkpt>
      <trkpt lat="59.476456" lon="17.8902733">
        <ele>0.6</ele>
        <time>2013-03-24T17:55:22Z</time>
      </trkpt>
      <trkpt lat="59.4766193" lon="17.8904709">
        <ele>1</ele>
        <time>2013-03-24T17:55:26Z</time>
      </trkpt>
      <trkpt lat="59.4767855" lon="17.8906444">
        <ele>0</ele>
        <time>2013-03-24T17:55:30Z</time>
      </trkpt>
      <trkpt lat="59.4769034" lon="17.8907645">
        <ele>0</ele>
        <time>2013-03-24T17:55:33Z</time>
      </trkpt>
      <trkpt lat="59.4769469" lon="17.8907978">
        <ele>0</ele>
        <time>2013-03-24T17:55:34Z</time>
      </trkpt>
      <trkpt lat="59.4770838" lon="17.8909224">
        <ele>0</ele>
        <time>2013-03-24T17:55:37Z</time>
      </trkpt>
      <trkpt lat="59.477131" lon="17.8909525">
        <ele>0</ele>
        <time>2013-03-24T17:55:38Z</time>
      </trkpt>
      <trkpt lat="59.4772268" lon="17.89101">
        <ele>0</ele>
        <time>2013-03-24T17:55:40Z</time>
      </trkpt>
      <trkpt lat="59.4773212" lon="17.8910519">
        <ele>0</ele>
        <time>2013-03-24T17:55:42Z</time>
      </trkpt>
      <trkpt lat="59.4773733" lon="17.891074">
        <ele>0</ele>
        <time>2013-03-24T17:55:43Z</time>
      </trkpt>
      <trkpt lat="59.4775349" lon="17.8911146">
        <ele>0</ele>
        <time>2013-03-24T17:55:46Z</time>
      </trkpt>
      <trkpt lat="59.4775901" lon="17.891122">
        <ele>0</ele>
        <time>2013-03-24T17:55:47Z</time>
      </trkpt>
      <trkpt lat="59.4776816" lon="17.8911219">
        <ele>0</ele>
        <time>2013-03-24T17:55:49Z</time>
      </trkpt>
      <trkpt lat="59.4777204" lon="17.8911121">
        <ele>0</ele>
        <time>2013-03-24T17:55:50Z</time>
      </trkpt>
      <trkpt lat="59.4778764" lon="17.8910634">
        <ele>0</ele>
        <time>2013-03-24T17:55:54Z</time>
      </trkpt>
      <trkpt lat="59.4779145" lon="17.8910327">
        <ele>0</ele>
        <time>2013-03-24T17:55:55Z</time>
      </trkpt>
      <trkpt lat="59.4780514" lon="17.8908426">
        <ele>0</ele>
        <time>2013-03-24T17:55:59Z</time>
      </trkpt>
      <trkpt lat="59.4780905" lon="17.8907919">
        <ele>0</ele>
        <time>2013-03-24T17:56:00Z</time>
      </trkpt>
      <trkpt lat="59.4782069" lon="17.8906443">
        <ele>0</ele>
        <time>2013-03-24T17:56:03Z</time>
      </trkpt>
      <trkpt lat="59.4782487" lon="17.8906018">
        <ele>0</ele>
        <time>2013-03-24T17:56:04Z</time>
      </trkpt>
      <trkpt lat="59.4783725" lon="17.8904842">
        <ele>0</ele>
        <time>2013-03-24T17:56:07Z</time>
      </trkpt>
      <trkpt lat="59.4784134" lon="17.8904515">
        <ele>0</ele>
        <time>2013-03-24T17:56:08Z</time>
      </trkpt>
      <trkpt lat="59.47845" lon="17.8904143">
        <ele>0</ele>
        <time>2013-03-24T17:56:09Z</time>
      </trkpt>
      <trkpt lat="59.4785934" lon="17.8902677">
        <ele>0</ele>
        <time>2013-03-24T17:56:13Z</time>
      </trkpt>
      <trkpt lat="59.478666" lon="17.890177">
        <ele>0</ele>
        <time>2013-03-24T17:56:15Z</time>
      </trkpt>
      <trkpt lat="59.4787604" lon="17.8900361">
        <ele>0</ele>
        <time>2013-03-24T17:56:18Z</time>
      </trkpt>
      <trkpt lat="59.47884" lon="17.8899339">
        <ele>0</ele>
        <time>2013-03-24T17:56:21Z</time>
      </trkpt>
      <trkpt lat="59.4789285" lon="17.8898962">
        <ele>0</ele>
        <time>2013-03-24T17:56:26Z</time>
      </trkpt>
      <trkpt lat="59.4791181" lon="17.8897829">
        <ele>0</ele>
        <time>2013-03-24T17:56:33Z</time>
      </trkpt>
      <trkpt lat="59.4792958" lon="17.8895742">
        <ele>0.2</ele>
        <time>2013-03-24T17:56:38Z</time>
      </trkpt>
      <trkpt lat="59.4794806" lon="17.8894248">
        <ele>1.6</ele>
        <time>2013-03-24T17:56:43Z</time>
      </trkpt>
      <trkpt lat="59.4795226" lon="17.8894118">
        <ele>2</ele>
        <time>2013-03-24T17:56:44Z</time>
      </trkpt>
      <trkpt lat="59.4796962" lon="17.8893649">
        <ele>1.6</ele>
        <time>2013-03-24T17:56:48Z</time>
      </trkpt>
      <trkpt lat="59.479741" lon="17.8893568">
        <ele>1.4</ele>
        <time>2013-03-24T17:56:49Z</time>
      </trkpt>
      <trkpt lat="59.4797868" lon="17.8893616">
        <ele>1.2</ele>
        <time>2013-03-24T17:56:50Z</time>
      </trkpt>
      <trkpt lat="59.4798831" lon="17.8893944">
        <ele>1</ele>
        <time>2013-03-24T17:56:52Z</time>
      </trkpt>
      <trkpt lat="59.4801034" lon="17.8895029">
        <ele>0</ele>
        <time>2013-03-24T17:56:56Z</time>
      </trkpt>
      <trkpt lat="59.4802238" lon="17.8895394">
        <ele>0</ele>
        <time>2013-03-24T17:56:58Z</time>
      </trkpt>
      <trkpt lat="59.4803306" lon="17.8895352">
        <ele>0</ele>
        <time>2013-03-24T17:57:00Z</time>
      </trkpt>
      <trkpt lat="59.4804198" lon="17.889515">
        <ele>0</ele>
        <time>2013-03-24T17:57:02Z</time>
      </trkpt>
      <trkpt lat="59.4804597" lon="17.889497">
        <ele>0.2</ele>
        <time>2013-03-24T17:57:03Z</time>
      </trkpt>
      <trkpt lat="59.4805443" lon="17.8894793">
        <ele>0</ele>
        <time>2013-03-24T17:57:05Z</time>
      </trkpt>
      <trkpt lat="59.4807208" lon="17.8894463">
        <ele>1.4</ele>
        <time>2013-03-24T17:57:09Z</time>
      </trkpt>
      <trkpt lat="59.4807628" lon="17.8894413">
        <ele>1.6</ele>
        <time>2013-03-24T17:57:10Z</time>
      </trkpt>
      <trkpt lat="59.4808042" lon="17.8894305">
        <ele>1.8</ele>
        <time>2013-03-24T17:57:11Z</time>
      </trkpt>
      <trkpt lat="59.4809351" lon="17.8893887">
        <ele>1.6</ele>
        <time>2013-03-24T17:57:14Z</time>
      </trkpt>
      <trkpt lat="59.4809809" lon="17.8893574">
        <ele>1.2</ele>
        <time>2013-03-24T17:57:15Z</time>
      </trkpt>
      <trkpt lat="59.481148" lon="17.8891654">
        <ele>0</ele>
        <time>2013-03-24T17:57:19Z</time>
      </trkpt>
      <trkpt lat="59.4812495" lon="17.8890498">
        <ele>0</ele>
        <time>2013-03-24T17:57:22Z</time>
      </trkpt>
      <trkpt lat="59.4813202" lon="17.8889841">
        <ele>0.4</ele>
        <time>2013-03-24T17:57:25Z</time>
      </trkpt>
      <trkpt lat="59.4815142" lon="17.8889121">
        <ele>0.4</ele>
        <time>2013-03-24T17:57:30Z</time>
      </trkpt>
      <trkpt lat="59.4816997" lon="17.888997">
        <ele>0.4</ele>
        <time>2013-03-24T17:57:34Z</time>
      </trkpt>
      <trkpt lat="59.4817512" lon="17.8890131">
        <ele>0.2</ele>
        <time>2013-03-24T17:57:35Z</time>
      </trkpt>
      <trkpt lat="59.4818584" lon="17.8890197">
        <ele>0</ele>
        <time>2013-03-24T17:57:37Z</time>
      </trkpt>
      <trkpt lat="59.4819085" lon="17.8889991">
        <ele>0</ele>
        <time>2013-03-24T17:57:38Z</time>
      </trkpt>
      <trkpt lat="59.4819552" lon="17.8889763">
        <ele>0</ele>
        <time>2013-03-24T17:57:39Z</time>
      </trkpt>
      <trkpt lat="59.4820802" lon="17.8888561">
        <ele>0</ele>
        <time>2013-03-24T17:57:42Z</time>
      </trkpt>
      <trkpt lat="59.4822273" lon="17.8886412">
        <ele>0</ele>
        <time>2013-03-24T17:57:46Z</time>
      </trkpt>
      <trkpt lat="59.4822592" lon="17.888581">
        <ele>0</ele>
        <time>2013-03-24T17:57:47Z</time>
      </trkpt>
      <trkpt lat="59.4822899" lon="17.8885174">
        <ele>0</ele>
        <time>2013-03-24T17:57:48Z</time>
      </trkpt>
      <trkpt lat="59.482372" lon="17.8883086">
        <ele>0</ele>
        <time>2013-03-24T17:57:51Z</time>
      </trkpt>
      <trkpt lat="59.4823966" lon="17.8882376">
        <ele>0</ele>
        <time>2013-03-24T17:57:52Z</time>
      </trkpt>
      <trkpt lat="59.4824375" lon="17.8881024">
        <ele>0</ele>
        <time>2013-03-24T17:57:54Z</time>
      </trkpt>
      <trkpt lat="59.4824827" lon="17.8879672">
        <ele>0</ele>
        <time>2013-03-24T17:57:56Z</time>
      </trkpt>
      <trkpt lat="59.4825913" lon="17.8876767">
        <ele>0</ele>
        <time>2013-03-24T17:58:00Z</time>
      </trkpt>
      <trkpt lat="59.4827134" lon="17.8874014">
        <ele>0</ele>
        <time>2013-03-24T17:58:04Z</time>
      </trkpt>
      <trkpt lat="59.4828436" lon="17.8871504">
        <ele>0</ele>
        <time>2013-03-24T17:58:08Z</time>
      </trkpt>
      <trkpt lat="59.4829972" lon="17.8868945">
        <ele>0</ele>
        <time>2013-03-24T17:58:13Z</time>
      </trkpt>
      <trkpt lat="59.4830249" lon="17.8868549">
        <ele>0</ele>
        <time>2013-03-24T17:58:14Z</time>
      </trkpt>
      <trkpt lat="59.4831304" lon="17.8867665">
        <ele>0</ele>
        <time>2013-03-24T17:58:17Z</time>
      </trkpt>
      <trkpt lat="59.4831704" lon="17.8867515">
        <ele>0</ele>
        <time>2013-03-24T17:58:18Z</time>
      </trkpt>
      <trkpt lat="59.4833482" lon="17.886734">
        <ele>0</ele>
        <time>2013-03-24T17:58:22Z</time>
      </trkpt>
      <trkpt lat="59.4835232" lon="17.8866335">
        <ele>0</ele>
        <time>2013-03-24T17:58:26Z</time>
      </trkpt>
      <trkpt lat="59.483562" lon="17.8865852">
        <ele>0</ele>
        <time>2013-03-24T17:58:27Z</time>
      </trkpt>
      <trkpt lat="59.4836735" lon="17.8864364">
        <ele>0</ele>
        <time>2013-03-24T17:58:30Z</time>
      </trkpt>
      <trkpt lat="59.4837113" lon="17.8863977">
        <ele>0</ele>
        <time>2013-03-24T17:58:31Z</time>
      </trkpt>
      <trkpt lat="59.4838728" lon="17.8862599">
        <ele>0</ele>
        <time>2013-03-24T17:58:35Z</time>
      </trkpt>
      <trkpt lat="59.4839115" lon="17.886223">
        <ele>0</ele>
        <time>2013-03-24T17:58:36Z</time>
      </trkpt>
      <trkpt lat="59.48402" lon="17.8861105">
        <ele>0</ele>
        <time>2013-03-24T17:58:39Z</time>
      </trkpt>
      <trkpt lat="59.4840578" lon="17.8860787">
        <ele>0</ele>
        <time>2013-03-24T17:58:40Z</time>
      </trkpt>
      <trkpt lat="59.4841265" lon="17.8860247">
        <ele>0</ele>
        <time>2013-03-24T17:58:42Z</time>
      </trkpt>
      <trkpt lat="59.4842472" lon="17.8859673">
        <ele>0</ele>
        <time>2013-03-24T17:58:45Z</time>
      </trkpt>
      <trkpt lat="59.4844376" lon="17.8859138">
        <ele>0</ele>
        <time>2013-03-24T17:58:50Z</time>
      </trkpt>
      <trkpt lat="59.4845839" lon="17.885694">
        <ele>0.2</ele>
        <time>2013-03-24T17:58:56Z</time>
      </trkpt>
      <trkpt lat="59.4847396" lon="17.8854497">
        <ele>5</ele>
        <time>2013-03-24T17:59:04Z</time>
      </trkpt>
      <trkpt lat="59.4849248" lon="17.8852907">
        <ele>5.6</ele>
        <time>2013-03-24T17:59:10Z</time>
      </trkpt>
      <trkpt lat="59.485128" lon="17.8854083">
        <ele>6</ele>
        <time>2013-03-24T17:59:15Z</time>
      </trkpt>
      <trkpt lat="59.485198" lon="17.885573">
        <ele>5.2</ele>
        <time>2013-03-24T17:59:17Z</time>
      </trkpt>
      <trkpt lat="59.4852639" lon="17.8857444">
        <ele>4.6</ele>
        <time>2013-03-24T17:59:19Z</time>
      </trkpt>
      <trkpt lat="59.4853548" lon="17.8861488">
        <ele>2.2</ele>
        <time>2013-03-24T17:59:23Z</time>
      </trkpt>
      <trkpt lat="59.4853855" lon="17.8862385">
        <ele>1.6</ele>
        <time>2013-03-24T17:59:24Z</time>
      </trkpt>
      <trkpt lat="59.4854212" lon="17.8863188">
        <ele>1.6</ele>
        <time>2013-03-24T17:59:25Z</time>
      </trkpt>
      <trkpt lat="59.4854996" lon="17.8864432">
        <ele>0.4</ele>
        <time>2013-03-24T17:59:27Z</time>
      </trkpt>
      <trkpt lat="59.4856341" lon="17.8865815">
        <ele>0</ele>
        <time>2013-03-24T17:59:30Z</time>
      </trkpt>
      <trkpt lat="59.4856854" lon="17.8866062">
        <ele>0</ele>
        <time>2013-03-24T17:59:31Z</time>
      </trkpt>
      <trkpt lat="59.4858766" lon="17.8866171">
        <ele>0</ele>
        <time>2013-03-24T17:59:35Z</time>
      </trkpt>
      <trkpt lat="59.4859619" lon="17.886594">
        <ele>0</ele>
        <time>2013-03-24T17:59:37Z</time>
      </trkpt>
      <trkpt lat="59.4860927" lon="17.8865412">
        <ele>0</ele>
        <time>2013-03-24T17:59:40Z</time>
      </trkpt>
      <trkpt lat="59.486222" lon="17.8864951">
        <ele>0</ele>
        <time>2013-03-24T17:59:43Z</time>
      </trkpt>
      <trkpt lat="59.4863049" lon="17.8864566">
        <ele>0</ele>
        <time>2013-03-24T17:59:45Z</time>
      </trkpt>
      <trkpt lat="59.4865132" lon="17.8863646">
        <ele>0</ele>
        <time>2013-03-24T17:59:50Z</time>
      </trkpt>
      <trkpt lat="59.4867226" lon="17.8862573">
        <ele>0</ele>
        <time>2013-03-24T17:59:55Z</time>
      </trkpt>
      <trkpt lat="59.4867611" lon="17.8862449">
        <ele>0</ele>
        <time>2013-03-24T17:59:56Z</time>
      </trkpt>
      <trkpt lat="59.4869176" lon="17.8861998">
        <ele>0</ele>
        <time>2013-03-24T18:00:00Z</time>
      </trkpt>
      <trkpt lat="59.4870548" lon="17.8859175">
        <ele>0</ele>
        <time>2013-03-24T18:00:06Z</time>
      </trkpt>
      <trkpt lat="59.4870539" lon="17.8858168">
        <ele>0</ele>
        <time>2013-03-24T18:00:08Z</time>
      </trkpt>
      <trkpt lat="59.487038" lon="17.8857481">
        <ele>0</ele>
        <time>2013-03-24T18:00:10Z</time>
      </trkpt>
      <trkpt lat="59.4869596" lon="17.8856378">
        <ele>0</ele>
        <time>2013-03-24T18:00:14Z</time>
      </trkpt>
      <trkpt lat="59.4869315" lon="17.8856187">
        <ele>0.2</ele>
        <time>2013-03-24T18:00:15Z</time>
      </trkpt>
      <trkpt lat="59.486768" lon="17.8855886">
        <ele>0.8</ele>
        <time>2013-03-24T18:00:20Z</time>
      </trkpt>
      <trkpt lat="59.4865863" lon="17.885547">
        <ele>3.8</ele>
        <time>2013-03-24T18:00:25Z</time>
      </trkpt>
      <trkpt lat="59.4864058" lon="17.8854259">
        <ele>5</ele>
        <time>2013-03-24T18:00:30Z</time>
      </trkpt>
      <trkpt lat="59.4862956" lon="17.8852354">
        <ele>7.2</ele>
        <time>2013-03-24T18:00:35Z</time>
      </trkpt>
      <trkpt lat="59.4862783" lon="17.885128">
        <ele>7.6</ele>
        <time>2013-03-24T18:00:37Z</time>
      </trkpt>
      <trkpt lat="59.4862913" lon="17.884768">
        <ele>7.6</ele>
        <time>2013-03-24T18:00:44Z</time>
      </trkpt>
      <trkpt lat="59.4863037" lon="17.8847249">
        <ele>8</ele>
        <time>2013-03-24T18:00:45Z</time>
      </trkpt>
      <trkpt lat="59.4863868" lon="17.88458">
        <ele>7.8</ele>
        <time>2013-03-24T18:00:49Z</time>
      </trkpt>
      <trkpt lat="59.4864438" lon="17.8845017">
        <ele>7.8</ele>
        <time>2013-03-24T18:00:51Z</time>
      </trkpt>
      <trkpt lat="59.4866007" lon="17.8843111">
        <ele>8.6</ele>
        <time>2013-03-24T18:00:56Z</time>
      </trkpt>
      <trkpt lat="59.4867977" lon="17.884093">
        <ele>8.8</ele>
        <time>2013-03-24T18:01:01Z</time>
      </trkpt>
      <trkpt lat="59.4868932" lon="17.8839857">
        <ele>9.2</ele>
        <time>2013-03-24T18:01:03Z</time>
      </trkpt>
      <trkpt lat="59.4869896" lon="17.8838722">
        <ele>8.6</ele>
        <time>2013-03-24T18:01:05Z</time>
      </trkpt>
      <trkpt lat="59.4871509" lon="17.8836982">
        <ele>7.4</ele>
        <time>2013-03-24T18:01:08Z</time>
      </trkpt>
      <trkpt lat="59.4872995" lon="17.8835642">
        <ele>6.4</ele>
        <time>2013-03-24T18:01:11Z</time>
      </trkpt>
      <trkpt lat="59.4873477" lon="17.8835415">
        <ele>6</ele>
        <time>2013-03-24T18:01:12Z</time>
      </trkpt>
      <trkpt lat="59.4875407" lon="17.8834652">
        <ele>4.2</ele>
        <time>2013-03-24T18:01:16Z</time>
      </trkpt>
      <trkpt lat="59.4877249" lon="17.8833849">
        <ele>2.6</ele>
        <time>2013-03-24T18:01:20Z</time>
      </trkpt>
      <trkpt lat="59.4877678" lon="17.8833585">
        <ele>2.2</ele>
        <time>2013-03-24T18:01:21Z</time>
      </trkpt>
      <trkpt lat="59.4879026" lon="17.8832855">
        <ele>0.8</ele>
        <time>2013-03-24T18:01:24Z</time>
      </trkpt>
      <trkpt lat="59.4881159" lon="17.8831591">
        <ele>0</ele>
        <time>2013-03-24T18:01:29Z</time>
      </trkpt>
      <trkpt lat="59.488277" lon="17.883055">
        <ele>0</ele>
        <time>2013-03-24T18:01:34Z</time>
      </trkpt>
      <trkpt lat="59.4882955" lon="17.8830408">
        <ele>0</ele>
        <time>2013-03-24T18:01:35Z</time>
      </trkpt>
      <trkpt lat="59.4885329" lon="17.8828466">
        <ele>5.6</ele>
        <time>2013-03-24T18:02:42Z</time>
      </trkpt>
      <trkpt lat="59.488664" lon="17.882601">
        <ele>4.2</ele>
        <time>2013-03-24T18:02:46Z</time>
      </trkpt>
      <trkpt lat="59.4887721" lon="17.8822824">
        <ele>4</ele>
        <time>2013-03-24T18:02:50Z</time>
      </trkpt>
      <trkpt lat="59.4888023" lon="17.8822133">
        <ele>3.8</ele>
        <time>2013-03-24T18:02:51Z</time>
      </trkpt>
      <trkpt lat="59.488909" lon="17.882025">
        <ele>3.6</ele>
        <time>2013-03-24T18:02:54Z</time>
      </trkpt>
      <trkpt lat="59.4890792" lon="17.8818136">
        <ele>3.4</ele>
        <time>2013-03-24T18:02:58Z</time>
      </trkpt>
      <trkpt lat="59.4892715" lon="17.8815891">
        <ele>1.2</ele>
        <time>2013-03-24T18:03:02Z</time>
      </trkpt>
      <trkpt lat="59.4893162" lon="17.8815382">
        <ele>1</ele>
        <time>2013-03-24T18:03:03Z</time>
      </trkpt>
      <trkpt lat="59.4894545" lon="17.8814212">
        <ele>0</ele>
        <time>2013-03-24T18:03:06Z</time>
      </trkpt>
      <trkpt lat="59.4896485" lon="17.8813839">
        <ele>0</ele>
        <time>2013-03-24T18:03:10Z</time>
      </trkpt>
      <trkpt lat="59.4898388" lon="17.8813828">
        <ele>0</ele>
        <time>2013-03-24T18:03:14Z</time>
      </trkpt>
      <trkpt lat="59.48998" lon="17.8813801">
        <ele>0</ele>
        <time>2013-03-24T18:03:17Z</time>
      </trkpt>
      <trkpt lat="59.4900295" lon="17.8813819">
        <ele>0</ele>
        <time>2013-03-24T18:03:18Z</time>
      </trkpt>
      <trkpt lat="59.4902235" lon="17.8813869">
        <ele>0</ele>
        <time>2013-03-24T18:03:22Z</time>
      </trkpt>
      <trkpt lat="59.4903608" lon="17.8814012">
        <ele>0</ele>
        <time>2013-03-24T18:03:25Z</time>
      </trkpt>
      <trkpt lat="59.4904081" lon="17.881416">
        <ele>0</ele>
        <time>2013-03-24T18:03:26Z</time>
      </trkpt>
      <trkpt lat="59.4905008" lon="17.8814305">
        <ele>0</ele>
        <time>2013-03-24T18:03:28Z</time>
      </trkpt>
      <trkpt lat="59.490596" lon="17.8814388">
        <ele>0</ele>
        <time>2013-03-24T18:03:30Z</time>
      </trkpt>
      <trkpt lat="59.49069" lon="17.8814367">
        <ele>0</ele>
        <time>2013-03-24T18:03:32Z</time>
      </trkpt>
      <trkpt lat="59.49078" lon="17.8814243">
        <ele>0</ele>
        <time>2013-03-24T18:03:34Z</time>
      </trkpt>
      <trkpt lat="59.490909" lon="17.8814207">
        <ele>0</ele>
        <time>2013-03-24T18:03:37Z</time>
      </trkpt>
      <trkpt lat="59.4909971" lon="17.8814361">
        <ele>0</ele>
        <time>2013-03-24T18:03:39Z</time>
      </trkpt>
      <trkpt lat="59.4910847" lon="17.8814522">
        <ele>0</ele>
        <time>2013-03-24T18:03:41Z</time>
      </trkpt>
      <trkpt lat="59.4912136" lon="17.881499">
        <ele>0</ele>
        <time>2013-03-24T18:03:44Z</time>
      </trkpt>
      <trkpt lat="59.4912571" lon="17.8815131">
        <ele>0</ele>
        <time>2013-03-24T18:03:45Z</time>
      </trkpt>
      <trkpt lat="59.4914273" lon="17.8815958">
        <ele>0</ele>
        <time>2013-03-24T18:03:49Z</time>
      </trkpt>
      <trkpt lat="59.4916093" lon="17.8816856">
        <ele>0</ele>
        <time>2013-03-24T18:03:53Z</time>
      </trkpt>
      <trkpt lat="59.491803" lon="17.8817589">
        <ele>0</ele>
        <time>2013-03-24T18:03:57Z</time>
      </trkpt>
      <trkpt lat="59.4919792" lon="17.8818272">
        <ele>0</ele>
        <time>2013-03-24T18:04:01Z</time>
      </trkpt>
      <trkpt lat="59.4921798" lon="17.881926">
        <ele>0</ele>
        <time>2013-03-24T18:04:06Z</time>
      </trkpt>
      <trkpt lat="59.4922424" lon="17.8819589">
        <ele>0</ele>
        <time>2013-03-24T18:04:08Z</time>
      </trkpt>
      <trkpt lat="59.4923828" lon="17.8820412">
        <ele>0</ele>
        <time>2013-03-24T18:04:12Z</time>
      </trkpt>
      <trkpt lat="59.4925738" lon="17.8821505">
        <ele>0</ele>
        <time>2013-03-24T18:04:16Z</time>
      </trkpt>
      <trkpt lat="59.4927602" lon="17.882223">
        <ele>0</ele>
        <time>2013-03-24T18:04:20Z</time>
      </trkpt>
      <trkpt lat="59.4928022" lon="17.88222">
        <ele>0</ele>
        <time>2013-03-24T18:04:21Z</time>
      </trkpt>
      <trkpt lat="59.4929199" lon="17.8820581">
        <ele>0</ele>
        <time>2013-03-24T18:04:25Z</time>
      </trkpt>
      <trkpt lat="59.4929407" lon="17.8818683">
        <ele>0</ele>
        <time>2013-03-24T18:04:28Z</time>
      </trkpt>
      <trkpt lat="59.4929324" lon="17.8816884">
        <ele>0</ele>
        <time>2013-03-24T18:04:31Z</time>
      </trkpt>
      <trkpt lat="59.4929256" lon="17.881301">
        <ele>0</ele>
        <time>2013-03-24T18:04:38Z</time>
      </trkpt>
      <trkpt lat="59.4929443" lon="17.8809234">
        <ele>2</ele>
        <time>2013-03-24T18:04:45Z</time>
      </trkpt>
      <trkpt lat="59.4930401" lon="17.8805773">
        <ele>2</ele>
        <time>2013-03-24T18:04:50Z</time>
      </trkpt>
      <trkpt lat="59.4931593" lon="17.8802732">
        <ele>2.2</ele>
        <time>2013-03-24T18:04:55Z</time>
      </trkpt>
      <trkpt lat="59.4931744" lon="17.8801088">
        <ele>2.6</ele>
        <time>2013-03-24T18:04:57Z</time>
      </trkpt>
      <trkpt lat="59.4931379" lon="17.8798749">
        <ele>1.8</ele>
        <time>2013-03-24T18:05:00Z</time>
      </trkpt>
      <trkpt lat="59.4930225" lon="17.8795683">
        <ele>1</ele>
        <time>2013-03-24T18:05:04Z</time>
      </trkpt>
      <trkpt lat="59.4929529" lon="17.8794543">
        <ele>0.2</ele>
        <time>2013-03-24T18:05:06Z</time>
      </trkpt>
      <trkpt lat="59.4928753" lon="17.8793583">
        <ele>0</ele>
        <time>2013-03-24T18:05:08Z</time>
      </trkpt>
      <trkpt lat="59.4927966" lon="17.8792924">
        <ele>0</ele>
        <time>2013-03-24T18:05:10Z</time>
      </trkpt>
      <trkpt lat="59.4926698" lon="17.8792273">
        <ele>0</ele>
        <time>2013-03-24T18:05:13Z</time>
      </trkpt>
      <trkpt lat="59.4925321" lon="17.8791721">
        <ele>0</ele>
        <time>2013-03-24T18:05:16Z</time>
      </trkpt>
      <trkpt lat="59.4924862" lon="17.8791744">
        <ele>0</ele>
        <time>2013-03-24T18:05:17Z</time>
      </trkpt>
      <trkpt lat="59.4923475" lon="17.8792075">
        <ele>0</ele>
        <time>2013-03-24T18:05:20Z</time>
      </trkpt>
      <trkpt lat="59.4922978" lon="17.8792077">
        <ele>0</ele>
        <time>2013-03-24T18:05:21Z</time>
      </trkpt>
      <trkpt lat="59.4921692" lon="17.8792101">
        <ele>0</ele>
        <time>2013-03-24T18:05:24Z</time>
      </trkpt>
      <trkpt lat="59.492084" lon="17.879207">
        <ele>0</ele>
        <time>2013-03-24T18:05:26Z</time>
      </trkpt>
      <trkpt lat="59.4918928" lon="17.8792117">
        <ele>0</ele>
        <time>2013-03-24T18:05:30Z</time>
      </trkpt>
      <trkpt lat="59.491757" lon="17.8792149">
        <ele>0</ele>
        <time>2013-03-24T18:05:33Z</time>
      </trkpt>
      <trkpt lat="59.4916689" lon="17.8792303">
        <ele>0</ele>
        <time>2013-03-24T18:05:35Z</time>
      </trkpt>
      <trkpt lat="59.4916304" lon="17.8792414">
        <ele>0</ele>
        <time>2013-03-24T18:05:36Z</time>
      </trkpt>
      <trkpt lat="59.4914922" lon="17.879267">
        <ele>0</ele>
        <time>2013-03-24T18:05:40Z</time>
      </trkpt>
      <trkpt lat="59.4914601" lon="17.8792736">
        <ele>0</ele>
        <time>2013-03-24T18:05:41Z</time>
      </trkpt>
      <trkpt lat="59.49125" lon="17.8792948">
        <ele>0</ele>
        <time>2013-03-24T18:05:47Z</time>
      </trkpt>
      <trkpt lat="59.4910513" lon="17.8792943">
        <ele>0</ele>
        <time>2013-03-24T18:05:52Z</time>
      </trkpt>
      <trkpt lat="59.4908691" lon="17.8792807">
        <ele>0</ele>
        <time>2013-03-24T18:05:56Z</time>
      </trkpt>
      <trkpt lat="59.4906868" lon="17.8792717">
        <ele>0</ele>
        <time>2013-03-24T18:06:00Z</time>
      </trkpt>
      <trkpt lat="59.4904895" lon="17.8792296">
        <ele>0</ele>
        <time>2013-03-24T18:06:04Z</time>
      </trkpt>
      <trkpt lat="59.4903056" lon="17.8792009">
        <ele>0</ele>
        <time>2013-03-24T18:06:08Z</time>
      </trkpt>
      <trkpt lat="59.4901263" lon="17.8791838">
        <ele>0</ele>
        <time>2013-03-24T18:06:12Z</time>
      </trkpt>
      <trkpt lat="59.4899543" lon="17.8792008">
        <ele>0</ele>
        <time>2013-03-24T18:06:16Z</time>
      </trkpt>
      <trkpt lat="59.489918" lon="17.8792052">
        <ele>0</ele>
        <time>2013-03-24T18:06:17Z</time>
      </trkpt>
      <trkpt lat="59.4898384" lon="17.8792113">
        <ele>0</ele>
        <time>2013-03-24T18:06:19Z</time>
      </trkpt>
      <trkpt lat="59.4897273" lon="17.8792123">
        <ele>0</ele>
        <time>2013-03-24T18:06:22Z</time>
      </trkpt>
      <trkpt lat="59.4895415" lon="17.8792248">
        <ele>0</ele>
        <time>2013-03-24T18:06:27Z</time>
      </trkpt>
      <trkpt lat="59.4893529" lon="17.8792269">
        <ele>1.8</ele>
        <time>2013-03-24T18:06:34Z</time>
      </trkpt>
      <trkpt lat="59.489143" lon="17.8792424">
        <ele>4</ele>
        <time>2013-03-24T18:06:41Z</time>
      </trkpt>
      <trkpt lat="59.4889529" lon="17.8792207">
        <ele>4.2</ele>
        <time>2013-03-24T18:06:47Z</time>
      </trkpt>
      <trkpt lat="59.4888373" lon="17.8791372">
        <ele>4.6</ele>
        <time>2013-03-24T18:06:51Z</time>
      </trkpt>
      <trkpt lat="59.4887524" lon="17.8791296">
        <ele>4.6</ele>
        <time>2013-03-24T18:06:54Z</time>
      </trkpt>
      <trkpt lat="59.48855" lon="17.8790873">
        <ele>5.4</ele>
        <time>2013-03-24T18:07:01Z</time>
      </trkpt>
      <trkpt lat="59.4883423" lon="17.8791533">
        <ele>3.8</ele>
        <time>2013-03-24T18:07:07Z</time>
      </trkpt>
      <trkpt lat="59.488174" lon="17.8793872">
        <ele>2.8</ele>
        <time>2013-03-24T18:07:12Z</time>
      </trkpt>
      <trkpt lat="59.488046" lon="17.879638">
        <ele>3.4</ele>
        <time>2013-03-24T18:07:16Z</time>
      </trkpt>
      <trkpt lat="59.4879689" lon="17.8798459">
        <ele>3.8</ele>
        <time>2013-03-24T18:07:19Z</time>
      </trkpt>
      <trkpt lat="59.4879308" lon="17.879993">
        <ele>4.2</ele>
        <time>2013-03-24T18:07:21Z</time>
      </trkpt>
      <trkpt lat="59.4878776" lon="17.8802155">
        <ele>5.6</ele>
        <time>2013-03-24T18:07:24Z</time>
      </trkpt>
      <trkpt lat="59.4878472" lon="17.8803671">
        <ele>6.2</ele>
        <time>2013-03-24T18:07:26Z</time>
      </trkpt>
      <trkpt lat="59.4878339" lon="17.8804412">
        <ele>6.8</ele>
        <time>2013-03-24T18:07:27Z</time>
      </trkpt>
      <trkpt lat="59.4877845" lon="17.880729">
        <ele>8</ele>
        <time>2013-03-24T18:07:31Z</time>
      </trkpt>
      <trkpt lat="59.4877229" lon="17.8811358">
        <ele>11</ele>
        <time>2013-03-24T18:07:37Z</time>
      </trkpt>
      <trkpt lat="59.4875715" lon="17.8813847">
        <ele>10</ele>
        <time>2013-03-24T18:07:42Z</time>
      </trkpt>
      <trkpt lat="59.4874161" lon="17.8814957">
        <ele>9.2</ele>
        <time>2013-03-24T18:07:46Z</time>
      </trkpt>
      <trkpt lat="59.4873688" lon="17.881505">
        <ele>9.2</ele>
        <time>2013-03-24T18:07:47Z</time>
      </trkpt>
      <trkpt lat="59.4871622" lon="17.8814258">
        <ele>8.4</ele>
        <time>2013-03-24T18:07:51Z</time>
      </trkpt>
      <trkpt lat="59.4871187" lon="17.8814087">
        <ele>8</ele>
        <time>2013-03-24T18:07:52Z</time>
      </trkpt>
      <trkpt lat="59.4870745" lon="17.8813779">
        <ele>8</ele>
        <time>2013-03-24T18:07:53Z</time>
      </trkpt>
      <trkpt lat="59.4869551" lon="17.8812632">
        <ele>8.2</ele>
        <time>2013-03-24T18:07:56Z</time>
      </trkpt>
      <trkpt lat="59.4869136" lon="17.8812186">
        <ele>8</ele>
        <time>2013-03-24T18:07:57Z</time>
      </trkpt>
      <trkpt lat="59.4867901" lon="17.8811212">
        <ele>8</ele>
        <time>2013-03-24T18:08:00Z</time>
      </trkpt>
      <trkpt lat="59.4867452" lon="17.8811">
        <ele>8.2</ele>
        <time>2013-03-24T18:08:01Z</time>
      </trkpt>
      <trkpt lat="59.4866256" lon="17.8810804">
        <ele>7.6</ele>
        <time>2013-03-24T18:08:04Z</time>
      </trkpt>
      <trkpt lat="59.4865904" lon="17.8810844">
        <ele>7.6</ele>
        <time>2013-03-24T18:08:05Z</time>
      </trkpt>
      <trkpt lat="59.486533" lon="17.8811003">
        <ele>6.8</ele>
        <time>2013-03-24T18:08:07Z</time>
      </trkpt>
      <trkpt lat="59.4864142" lon="17.8811052">
        <ele>6.8</ele>
        <time>2013-03-24T18:08:12Z</time>
      </trkpt>
      <trkpt lat="59.4863878" lon="17.8811022">
        <ele>6.6</ele>
        <time>2013-03-24T18:08:13Z</time>
      </trkpt>
      <trkpt lat="59.4862028" lon="17.8810591">
        <ele>6.8</ele>
        <time>2013-03-24T18:08:19Z</time>
      </trkpt>
      <trkpt lat="59.4860222" lon="17.8810253">
        <ele>5.8</ele>
        <time>2013-03-24T18:08:24Z</time>
      </trkpt>
      <trkpt lat="59.4858411" lon="17.8811436">
        <ele>5.4</ele>
        <time>2013-03-24T18:08:30Z</time>
      </trkpt>
      <trkpt lat="59.4857248" lon="17.8814381">
        <ele>5.2</ele>
        <time>2013-03-24T18:08:35Z</time>
      </trkpt>
      <trkpt lat="59.4856928" lon="17.8818488">
        <ele>6.2</ele>
        <time>2013-03-24T18:08:40Z</time>
      </trkpt>
      <trkpt lat="59.4857046" lon="17.8822717">
        <ele>6.2</ele>
        <time>2013-03-24T18:08:45Z</time>
      </trkpt>
      <trkpt lat="59.4856811" lon="17.8826322">
        <ele>6.4</ele>
        <time>2013-03-24T18:08:49Z</time>
      </trkpt>
      <trkpt lat="59.4856945" lon="17.8829974">
        <ele>8</ele>
        <time>2013-03-24T18:08:53Z</time>
      </trkpt>
      <trkpt lat="59.4857414" lon="17.883268">
        <ele>8</ele>
        <time>2013-03-24T18:08:56Z</time>
      </trkpt>
      <trkpt lat="59.4857595" lon="17.8833552">
        <ele>7.6</ele>
        <time>2013-03-24T18:08:57Z</time>
      </trkpt>
      <trkpt lat="59.4857924" lon="17.8835298">
        <ele>7.4</ele>
        <time>2013-03-24T18:08:59Z</time>
      </trkpt>
      <trkpt lat="59.4858157" lon="17.8837098">
        <ele>6.2</ele>
        <time>2013-03-24T18:09:01Z</time>
      </trkpt>
      <trkpt lat="59.4857865" lon="17.8841008">
        <ele>4.6</ele>
        <time>2013-03-24T18:09:05Z</time>
      </trkpt>
      <trkpt lat="59.4856024" lon="17.8843412">
        <ele>3.2</ele>
        <time>2013-03-24T18:09:09Z</time>
      </trkpt>
      <trkpt lat="59.4854456" lon="17.8844275">
        <ele>2.2</ele>
        <time>2013-03-24T18:09:12Z</time>
      </trkpt>
      <trkpt lat="59.4853932" lon="17.8844477">
        <ele>1.8</ele>
        <time>2013-03-24T18:09:13Z</time>
      </trkpt>
      <trkpt lat="59.4851695" lon="17.8845181">
        <ele>0</ele>
        <time>2013-03-24T18:09:17Z</time>
      </trkpt>
      <trkpt lat="59.4850022" lon="17.8845805">
        <ele>0</ele>
        <time>2013-03-24T18:09:20Z</time>
      </trkpt>
      <trkpt lat="59.4849494" lon="17.8845866">
        <ele>0</ele>
        <time>2013-03-24T18:09:21Z</time>
      </trkpt>
      <trkpt lat="59.4848016" lon="17.8846135">
        <ele>0</ele>
        <time>2013-03-24T18:09:24Z</time>
      </trkpt>
      <trkpt lat="59.4847575" lon="17.8846182">
        <ele>0</ele>
        <time>2013-03-24T18:09:25Z</time>
      </trkpt>
      <trkpt lat="59.4846438" lon="17.8846422">
        <ele>0</ele>
        <time>2013-03-24T18:09:28Z</time>
      </trkpt>
      <trkpt lat="59.4845737" lon="17.8846464">
        <ele>0</ele>
        <time>2013-03-24T18:09:30Z</time>
      </trkpt>
      <trkpt lat="59.4845007" lon="17.884655">
        <ele>0</ele>
        <time>2013-03-24T18:09:32Z</time>
      </trkpt>
      <trkpt lat="59.4843925" lon="17.8846774">
        <ele>0</ele>
        <time>2013-03-24T18:09:35Z</time>
      </trkpt>
      <trkpt lat="59.4841967" lon="17.8846954">
        <ele>0</ele>
        <time>2013-03-24T18:09:40Z</time>
      </trkpt>
      <trkpt lat="59.484016" lon="17.8846381">
        <ele>0</ele>
        <time>2013-03-24T18:09:45Z</time>
      </trkpt>
      <trkpt lat="59.4838211" lon="17.8847505">
        <ele>0.8</ele>
        <time>2013-03-24T18:09:50Z</time>
      </trkpt>
      <trkpt lat="59.4836998" lon="17.8850125">
        <ele>0.8</ele>
        <time>2013-03-24T18:09:54Z</time>
      </trkpt>
      <trkpt lat="59.4835523" lon="17.8853326">
        <ele>0.6</ele>
        <time>2013-03-24T18:09:58Z</time>
      </trkpt>
      <trkpt lat="59.4834282" lon="17.8855951">
        <ele>0.2</ele>
        <time>2013-03-24T18:10:01Z</time>
      </trkpt>
      <trkpt lat="59.4833554" lon="17.88576">
        <ele>0.4</ele>
        <time>2013-03-24T18:10:03Z</time>
      </trkpt>
      <trkpt lat="59.4832939" lon="17.885922">
        <ele>0.2</ele>
        <time>2013-03-24T18:10:05Z</time>
      </trkpt>
      <trkpt lat="59.4831991" lon="17.8861615">
        <ele>0</ele>
        <time>2013-03-24T18:10:08Z</time>
      </trkpt>
      <trkpt lat="59.483161" lon="17.8862393">
        <ele>0</ele>
        <time>2013-03-24T18:10:09Z</time>
      </trkpt>
      <trkpt lat="59.4831267" lon="17.886307">
        <ele>0</ele>
        <time>2013-03-24T18:10:10Z</time>
      </trkpt>
      <trkpt lat="59.4830006" lon="17.8863811">
        <ele>0</ele>
        <time>2013-03-24T18:10:13Z</time>
      </trkpt>
      <trkpt lat="59.482889" lon="17.8863068">
        <ele>0</ele>
        <time>2013-03-24T18:10:16Z</time>
      </trkpt>
      <trkpt lat="59.4828509" lon="17.8862633">
        <ele>0</ele>
        <time>2013-03-24T18:10:17Z</time>
      </trkpt>
      <trkpt lat="59.4828168" lon="17.8862102">
        <ele>0</ele>
        <time>2013-03-24T18:10:18Z</time>
      </trkpt>
      <trkpt lat="59.4827199" lon="17.8858471">
        <ele>0.4</ele>
        <time>2013-03-24T18:10:23Z</time>
      </trkpt>
      <trkpt lat="59.4826995" lon="17.8856562">
        <ele>1.4</ele>
        <time>2013-03-24T18:10:26Z</time>
      </trkpt>
      <trkpt lat="59.482682" lon="17.8854723">
        <ele>1.8</ele>
        <time>2013-03-24T18:10:29Z</time>
      </trkpt>
      <trkpt lat="59.4826829" lon="17.8850657">
        <ele>3.6</ele>
        <time>2013-03-24T18:10:36Z</time>
      </trkpt>
      <trkpt lat="59.4826935" lon="17.8846597">
        <ele>5.2</ele>
        <time>2013-03-24T18:10:42Z</time>
      </trkpt>
      <trkpt lat="59.4826847" lon="17.8842821">
        <ele>6.2</ele>
        <time>2013-03-24T18:10:49Z</time>
      </trkpt>
      <trkpt lat="59.4827146" lon="17.8838977">
        <ele>10</ele>
        <time>2013-03-24T18:10:57Z</time>
      </trkpt>
      <trkpt lat="59.4827637" lon="17.8835817">
        <ele>13.8</ele>
        <time>2013-03-24T18:11:05Z</time>
      </trkpt>
      <trkpt lat="59.482768" lon="17.8835353">
        <ele>13.6</ele>
        <time>2013-03-24T18:11:06Z</time>
      </trkpt>
      <trkpt lat="59.482772" lon="17.8831618">
        <ele>14.4</ele>
        <time>2013-03-24T18:11:12Z</time>
      </trkpt>
      <trkpt lat="59.4827975" lon="17.8827996">
        <ele>16</ele>
        <time>2013-03-24T18:11:20Z</time>
      </trkpt>
      <trkpt lat="59.4828009" lon="17.8827714">
        <ele>16.2</ele>
        <time>2013-03-24T18:11:21Z</time>
      </trkpt>
      <trkpt lat="59.4828704" lon="17.8824632">
        <ele>19</ele>
        <time>2013-03-24T18:11:33Z</time>
      </trkpt>
      <trkpt lat="59.482918" lon="17.88206">
        <ele>17.4</ele>
        <time>2013-03-24T18:11:41Z</time>
      </trkpt>
      <trkpt lat="59.4829674" lon="17.8816839">
        <ele>16.2</ele>
        <time>2013-03-24T18:11:48Z</time>
      </trkpt>
      <trkpt lat="59.4830138" lon="17.8813258">
        <ele>15.8</ele>
        <time>2013-03-24T18:11:53Z</time>
      </trkpt>
      <trkpt lat="59.4830913" lon="17.8809637">
        <ele>14.2</ele>
        <time>2013-03-24T18:11:58Z</time>
      </trkpt>
      <trkpt lat="59.4831438" lon="17.88064">
        <ele>14.2</ele>
        <time>2013-03-24T18:12:02Z</time>
      </trkpt>
      <trkpt lat="59.4831517" lon="17.8805617">
        <ele>14</ele>
        <time>2013-03-24T18:12:03Z</time>
      </trkpt>
      <trkpt lat="59.4831625" lon="17.8804825">
        <ele>13.6</ele>
        <time>2013-03-24T18:12:04Z</time>
      </trkpt>
      <trkpt lat="59.4832031" lon="17.8801615">
        <ele>12.8</ele>
        <time>2013-03-24T18:12:08Z</time>
      </trkpt>
      <trkpt lat="59.4832361" lon="17.879797">
        <ele>14.6</ele>
        <time>2013-03-24T18:12:15Z</time>
      </trkpt>
      <trkpt lat="59.4832445" lon="17.8794092">
        <ele>16.2</ele>
        <time>2013-03-24T18:12:22Z</time>
      </trkpt>
      <trkpt lat="59.4832399" lon="17.8790098">
        <ele>16</ele>
        <time>2013-03-24T18:12:28Z</time>
      </trkpt>
      <trkpt lat="59.4833347" lon="17.878712">
        <ele>17.6</ele>
        <time>2013-03-24T18:12:32Z</time>
      </trkpt>
      <trkpt lat="59.4834645" lon="17.8784472">
        <ele>17.2</ele>
        <time>2013-03-24T18:12:36Z</time>
      </trkpt>
      <trkpt lat="59.4835932" lon="17.8781922">
        <ele>16.2</ele>
        <time>2013-03-24T18:12:40Z</time>
      </trkpt>
      <trkpt lat="59.4837057" lon="17.8779606">
        <ele>16</ele>
        <time>2013-03-24T18:12:44Z</time>
      </trkpt>
      <trkpt lat="59.4837279" lon="17.8778987">
        <ele>16.2</ele>
        <time>2013-03-24T18:12:45Z</time>
      </trkpt>
      <trkpt lat="59.4837714" lon="17.8776908">
        <ele>15.8</ele>
        <time>2013-03-24T18:12:48Z</time>
      </trkpt>
      <trkpt lat="59.4837857" lon="17.8776246">
        <ele>15.6</ele>
        <time>2013-03-24T18:12:49Z</time>
      </trkpt>
      <trkpt lat="59.4838053" lon="17.8775582">
        <ele>15.6</ele>
        <time>2013-03-24T18:12:50Z</time>
      </trkpt>
      <trkpt lat="59.4839413" lon="17.8772611">
        <ele>15.6</ele>
        <time>2013-03-24T18:12:56Z</time>
      </trkpt>
    </trkseg>
  </trk>
</gpx>